| time (UTC) | temp C | wind direction | speed KPH | gust KPH | rain 1hr cm | rain 24hr cm | rain mn cm | humidity % | barometer mb |
| 20260904103146 | 18 | 270 | 183.5 | 0.0 | 0.00 | 1.80 | 0.00 | 94 | 1049.9 |
| 20260904102531 | 18 | 270 | 183.5 | 0.0 | 0.00 | 1.80 | 0.00 | 94 | 1050.1 |
| 20260904101926 | 17 | 270 | 183.5 | 0.0 | 0.00 | 1.80 | 0.00 | 95 | 1049.8 |
| 20260904101303 | 17 | 270 | 183.5 | 0.0 | 0.10 | 1.80 | 0.00 | 95 | 1049.8 |
| 20260904100706 | 17 | 270 | 183.5 | 0.0 | 0.15 | 1.80 | 0.00 | 95 | 1049.7 |
| 20260904100036 | 17 | 270 | 183.5 | 0.0 | 0.15 | 1.80 | 0.00 | 95 | 1049.8 |
| 20260904095422 | 17 | 270 | 183.5 | 0.0 | 0.15 | 1.85 | 0.00 | 95 | 1049.8 |
| 20260904094802 | 17 | 270 | 183.5 | 0.0 | 0.20 | 1.85 | 0.00 | 95 | 1049.8 |
| 20260904094203 | 17 | 270 | 183.5 | 0.0 | 0.20 | 1.85 | 0.00 | 95 | 1049.7 |
| 20260904093558 | 18 | 270 | 183.5 | 0.0 | 0.20 | 1.85 | 0.00 | 95 | 1049.9 |
| 20260904093017 | 18 | 270 | 183.5 | 0.0 | 0.25 | 1.85 | 0.00 | 94 | 1049.8 |
| 20260904092419 | 18 | 270 | 183.5 | 0.0 | 0.25 | 1.85 | 0.00 | 95 | 1049.6 |
| 20260904091757 | 18 | 270 | 183.5 | 0.0 | 0.25 | 1.80 | 0.00 | 95 | 1048.9 |
| 20260904091152 | 18 | 270 | 183.5 | 0.0 | 0.15 | 1.70 | 0.00 | 95 | 1048.7 |
| 20260904090529 | 18 | 270 | 183.5 | 0.0 | 0.20 | 1.70 | 0.00 | 95 | 1048.9 |
| 20260904085907 | 18 | 270 | 183.5 | 0.0 | 0.25 | 1.70 | 0.00 | 95 | 1049.0 |
| 20260904085310 | 18 | 270 | 183.5 | 0.0 | 0.25 | 1.65 | 0.00 | 95 | 1048.8 |
| 20260904084657 | 18 | 270 | 183.5 | 0.0 | 0.25 | 1.65 | 0.00 | 95 | 1048.9 |
| 20260904084042 | 18 | 270 | 183.5 | 0.0 | 0.30 | 1.65 | 0.00 | 94 | 1048.9 |
| 20260904083445 | 18 | 270 | 183.5 | 0.0 | 0.36 | 1.65 | 0.00 | 94 | 1049.1 |
| 20260904082847 | 18 | 270 | 183.5 | 0.0 | 0.36 | 1.60 | 0.00 | 94 | 1049.1 |
| 20260904082234 | 18 | 270 | 183.5 | 0.0 | 0.36 | 1.55 | 0.00 | 94 | 1048.9 |
| 20260904081605 | 17 | 270 | 183.5 | 0.0 | 0.36 | 1.55 | 0.00 | 94 | 1048.9 |
| 20260904080951 | 17 | 270 | 183.5 | 0.0 | 0.41 | 1.55 | 0.00 | 94 | 1049.0 |
| 20260904080321 | 17 | 270 | 183.5 | 0.0 | 0.79 | 1.50 | 0.00 | 94 | 1049.4 |
| 20260904075658 | 17 | 270 | 183.5 | 0.0 | 0.84 | 1.40 | 0.00 | 94 | 1049.5 |
| 20260904075021 | 17 | 270 | 183.5 | 0.0 | 0.94 | 1.40 | 0.00 | 94 | 1049.5 |
| 20260904074350 | 17 | 270 | 183.5 | 0.0 | 1.04 | 1.35 | 0.00 | 93 | 1049.6 |
| 20260904073721 | 17 | 270 | 183.5 | 0.0 | 1.04 | 1.30 | 0.00 | 93 | 1049.9 |
| 20260904073050 | 17 | 270 | 183.5 | 0.0 | 1.09 | 1.24 | 0.00 | 93 | 1050.0 |
| 20260904072421 | 17 | 270 | 183.5 | 0.0 | 1.04 | 1.19 | 0.00 | 93 | 1050.2 |
| 20260904071751 | 17 | 270 | 183.5 | 0.0 | 1.09 | 1.19 | 0.00 | 93 | 1050.4 |
| 20260904071121 | 17 | 270 | 183.5 | 0.0 | 0.99 | 1.09 | 0.00 | 93 | 1050.5 |
| 20260904070451 | 17 | 270 | 183.5 | 0.0 | 0.66 | 0.79 | 0.00 | 93 | 1051.0 |
| 20260904065820 | 17 | 270 | 183.5 | 0.0 | 0.46 | 0.56 | 0.00 | 92 | 1050.7 |
| 20260904065151 | 17 | 270 | 183.5 | 0.0 | 0.41 | 0.46 | 0.00 | 92 | 1050.5 |
| 20260904064520 | 17 | 270 | 183.5 | 0.0 | 0.30 | 0.36 | 0.00 | 92 | 1050.8 |
| 20260904063851 | 17 | 270 | 183.5 | 0.0 | 0.20 | 0.25 | 0.00 | 91 | 1050.7 |
| 20260904063233 | 17 | 270 | 183.5 | 0.0 | 0.10 | 0.15 | 0.00 | 90 | 1050.9 |
| 20260904062604 | 18 | 270 | 183.5 | 0.0 | 0.10 | 0.15 | 0.00 | 90 | 1050.7 |
| 20260904061949 | 18 | 270 | 183.5 | 0.0 | 0.05 | 0.10 | 0.00 | 90 | 1051.4 |
| 20260904061318 | 18 | 270 | 183.5 | 0.0 | 0.05 | 0.10 | 0.00 | 90 | 1051.2 |
| 20260904060648 | 18 | 270 | 183.5 | 0.0 | 0.05 | 0.10 | 0.00 | 92 | 1051.2 |
| 20260904060033 | 18 | 270 | 183.5 | 0.0 | 0.05 | 0.10 | 0.00 | 92 | 1051.4 |
| 20260904055426 | 18 | 270 | 183.5 | 0.0 | 0.05 | 0.10 | 0.00 | 92 | 1051.5 |
| 20260904054830 | 18 | 270 | 183.5 | 0.0 | 0.00 | 0.05 | 0.00 | 92 | 1051.7 |
| 20260904054227 | 18 | 270 | 183.5 | 0.0 | 0.00 | 0.05 | 0.00 | 92 | 1051.9 |
| 20260904053607 | 18 | 270 | 183.5 | 0.0 | 0.00 | 0.05 | 0.00 | 92 | 1051.9 |
| 20260904052948 | 18 | 270 | 183.5 | 0.0 | 0.00 | 0.05 | 0.00 | 91 | 1052.0 |
| 20260904052346 | 18 | 270 | 183.5 | 0.0 | 0.00 | 0.05 | 0.00 | 91 | 1051.9 |
| 20260904051759 | 18 | 270 | 183.5 | 0.0 | 0.00 | 0.05 | 0.00 | 91 | 1051.9 |
| 20260904051158 | 18 | 270 | 183.5 | 0.0 | 0.00 | 0.05 | 0.00 | 91 | 1051.9 |
| 20260904050542 | 18 | 270 | 183.5 | 0.0 | 0.00 | 0.05 | 0.00 | 90 | 1052.1 |
| 20260904045937 | 18 | 270 | 14.5 | 0.0 | 0.00 | 0.05 | 0.00 | 90 | 1052.2 |
| 20260904045824 | 18 | 292 | 9.7 | 0.0 | 0.00 | 0.05 | 0.00 | 90 | 1052.0 |
| 20260904045721 | 18 | 270 | 9.7 | 0.0 | 0.00 | 0.05 | 0.00 | 90 | 1052.1 |
| 20260904045615 | 18 | 247 | 6.4 | 0.0 | 0.00 | 0.05 | 0.00 | 90 | 1052.2 |
| 20260904045509 | 18 | 292 | 9.7 | 0.0 | 0.00 | 0.05 | 0.00 | 90 | 1052.3 |
| 20260904045403 | 18 | 315 | 16.1 | 0.0 | 0.00 | 0.05 | 0.00 | 90 | 1052.3 |
| 20260904045258 | 18 | 270 | 19.3 | 0.0 | 0.00 | 0.05 | 0.00 | 90 | 1052.3 |
| 20260904045145 | 18 | 270 | 9.7 | 0.0 | 0.00 | 0.05 | 0.00 | 89 | 1052.2 |
| 20260904045040 | 18 | 270 | 19.3 | 0.0 | 0.00 | 0.05 | 0.00 | 89 | 1052.1 |
| 20260904044928 | 18 | 270 | 14.5 | 0.0 | 0.00 | 0.05 | 0.00 | 89 | 1052.1 |
| 20260904044821 | 19 | 292 | 20.9 | 0.0 | 0.00 | 0.05 | 0.00 | 89 | 1052.0 |
| 20260904044707 | 19 | 292 | 14.5 | 0.0 | 0.00 | 0.05 | 0.00 | 89 | 1052.1 |
| 20260904044554 | 19 | 270 | 30.6 | 0.0 | 0.00 | 0.05 | 0.00 | 89 | 1052.1 |
| 20260904044447 | 18 | 292 | 12.9 | 0.0 | 0.00 | 0.05 | 0.00 | 89 | 1052.2 |
| 20260904044342 | 18 | 270 | 4.8 | 0.0 | 0.00 | 0.05 | 0.00 | 89 | 1052.2 |
| 20260904044236 | 19 | 270 | 20.9 | 0.0 | 0.00 | 0.05 | 0.00 | 89 | 1052.2 |
| 20260904044122 | 19 | 270 | 9.7 | 0.0 | 0.00 | 0.05 | 0.00 | 89 | 1052.2 |
| 20260904043959 | 19 | 225 | 4.8 | 0.0 | 0.00 | 0.05 | 0.00 | 89 | 1052.3 |
| 20260904043845 | 19 | 270 | 24.1 | 0.0 | 0.00 | 0.05 | 0.00 | 89 | 1052.3 |
| 20260904043722 | 19 | 247 | 12.9 | 0.0 | 0.00 | 0.05 | 0.00 | 89 | 1052.3 |
| 20260904043610 | 19 | 247 | 24.1 | 0.0 | 0.00 | 0.05 | 0.00 | 89 | 1052.3 |
| 20260904043455 | 19 | 270 | 17.7 | 0.0 | 0.00 | 0.05 | 0.00 | 89 | 1052.3 |
| 20260904043336 | 19 | 247 | 11.3 | 0.0 | 0.00 | 0.05 | 0.00 | 89 | 1052.3 |
| 20260904043225 | 19 | 270 | 16.1 | 0.0 | 0.00 | 0.05 | 0.00 | 88 | 1052.4 |
| 20260904043117 | 19 | 270 | 9.7 | 0.0 | 0.00 | 0.05 | 0.00 | 88 | 1052.4 |
| 20260904042958 | 19 | 202 | 3.2 | 0.0 | 0.00 | 0.05 | 0.00 | 88 | 1052.3 |
| 20260904042853 | 19 | 180 | 11.3 | 0.0 | 0.00 | 0.05 | 0.00 | 88 | 1052.5 |
| 20260904042746 | 19 | 247 | 11.3 | 0.0 | 0.00 | 0.05 | 0.00 | 88 | 1052.4 |
| 20260904042626 | 19 | 270 | 11.3 | 0.0 | 0.00 | 0.05 | 0.00 | 88 | 1052.4 |
| 20260904042520 | 19 | 270 | 17.7 | 0.0 | 0.00 | 0.05 | 0.00 | 88 | 1052.4 |
| 20260904042407 | 19 | 247 | 14.5 | 0.0 | 0.00 | 0.05 | 0.00 | 88 | 1052.5 |
| 20260904042305 | 19 | 270 | 20.9 | 0.0 | 0.00 | 0.05 | 0.00 | 88 | 1052.5 |
| 20260904042140 | 19 | 202 | 12.9 | 0.0 | 0.00 | 0.05 | 0.00 | 88 | 1052.5 |
| 20260904042019 | 19 | 247 | 25.7 | 0.0 | 0.00 | 0.05 | 0.00 | 88 | 1052.5 |
| 20260904041905 | 19 | 270 | 14.5 | 0.0 | 0.00 | 0.05 | 0.00 | 88 | 1052.5 |
| 20260904041756 | 19 | 247 | 17.7 | 0.0 | 0.00 | 0.05 | 0.00 | 88 | 1052.6 |
| 20260904041649 | 19 | 270 | 24.1 | 0.0 | 0.00 | 0.05 | 0.00 | 88 | 1052.6 |
| 20260904041535 | 19 | 270 | 19.3 | 0.0 | 0.00 | 0.05 | 0.00 | 88 | 1052.7 |
| 20260904041415 | 19 | 270 | 4.8 | 0.0 | 0.00 | 0.05 | 0.00 | 88 | 1052.6 |
| 20260904041307 | 19 | 202 | 19.3 | 0.0 | 0.00 | 0.05 | 0.00 | 88 | 1052.6 |
| 20260904041156 | 19 | 292 | 14.5 | 0.0 | 0.00 | 0.05 | 0.00 | 88 | 1052.6 |
| 20260904041050 | 19 | 270 | 22.5 | 0.0 | 0.00 | 0.05 | 0.00 | 88 | 1052.6 |
| 20260904040928 | 19 | 247 | 9.7 | 0.0 | 0.00 | 0.05 | 0.00 | 88 | 1052.5 |
| 20260904040810 | 19 | 270 | 14.5 | 0.0 | 0.00 | 0.05 | 0.00 | 88 | 1052.5 |
| 20260904040702 | 19 | 270 | 12.9 | 0.0 | 0.00 | 0.05 | 0.00 | 88 | 1052.6 |
| 20260904040541 | 19 | 247 | 6.4 | 0.0 | 0.00 | 0.05 | 0.00 | 88 | 1052.6 |
| 20260904040421 | 19 | 270 | 14.5 | 0.0 | 0.00 | 0.05 | 0.00 | 88 | 1052.6 |
| 20260904040315 | 19 | 225 | 19.3 | 0.0 | 0.00 | 0.05 | 0.00 | 88 | 1052.7 |
| 20260904040205 | 19 | 270 | 11.3 | 0.0 | 0.00 | 0.05 | 0.00 | 88 | 1052.8 |
| 20260904040057 | 19 | 202 | 3.2 | 0.0 | 0.00 | 0.05 | 0.00 | 88 | 1052.7 |
| 20260904035943 | 19 | 202 | 12.9 | 0.0 | 0.00 | 0.05 | 0.00 | 88 | 1052.7 |
| 20260904035824 | 19 | 247 | 11.3 | 0.0 | 0.00 | 0.05 | 0.00 | 88 | 1052.7 |
| 20260904035718 | 19 | 247 | 3.2 | 0.0 | 0.00 | 0.05 | 0.00 | 88 | 1052.7 |
| 20260904035604 | 19 | 225 | 9.7 | 0.0 | 0.00 | 0.05 | 0.00 | 88 | 1052.7 |
| 20260904035452 | 19 | 247 | 8.0 | 0.0 | 0.00 | 0.05 | 0.00 | 88 | 1052.7 |
| 20260904035345 | 19 | 247 | 20.9 | 0.0 | 0.00 | 0.05 | 0.00 | 88 | 1052.7 |
| 20260904035233 | 19 | 247 | 6.4 | 0.0 | 0.00 | 0.05 | 0.00 | 88 | 1052.7 |
| 20260904035121 | 19 | 225 | 4.8 | 0.0 | 0.00 | 0.05 | 0.00 | 88 | 1052.7 |
| 20260904035007 | 19 | 270 | 12.9 | 0.0 | 0.00 | 0.05 | 0.00 | 88 | 1052.7 |
| 20260904034853 | 19 | 225 | 12.9 | 0.0 | 0.00 | 0.05 | 0.00 | 88 | 1052.7 |
| 20260904034539 | 19 | 157 | 183.5 | 0.0 | 0.00 | 0.05 | 0.00 | 89 | 1052.8 |
| 20260904033909 | 19 | 157 | 183.5 | 0.0 | 0.00 | 0.05 | 0.00 | 90 | 1052.8 |
| 20260904033247 | 19 | 157 | 183.5 | 0.0 | 0.00 | 0.05 | 0.00 | 91 | 1052.9 |
| 20260904032641 | 19 | 157 | 183.5 | 0.0 | 0.00 | 0.05 | 0.00 | 92 | 1053.0 |
| 20260904032009 | 18 | 157 | 183.5 | 0.0 | 0.00 | 0.05 | 0.00 | 92 | 1053.2 |
| 20260904031407 | 18 | 157 | 183.5 | 0.0 | 0.00 | 0.05 | 0.00 | 92 | 1053.2 |
| 20260904030753 | 18 | 157 | 183.5 | 0.0 | 0.00 | 0.05 | 0.00 | 93 | 1053.3 |
| 20260904030142 | 18 | 157 | 183.5 | 0.0 | 0.00 | 0.05 | 0.00 | 93 | 1053.5 |
| 20260904025542 | 18 | 157 | 183.5 | 0.0 | 0.00 | 0.05 | 0.00 | 93 | 1053.4 |
| 20260904024920 | 18 | 157 | 183.5 | 0.0 | 0.00 | 0.05 | 0.00 | 93 | 1053.6 |
| 20260904024314 | 18 | 157 | 183.5 | 0.0 | 0.00 | 0.05 | 0.00 | 93 | 1053.7 |
| 20260904023644 | 18 | 157 | 183.5 | 0.0 | 0.00 | 0.05 | 0.00 | 93 | 1053.6 |
| 20260904023024 | 18 | 157 | 183.5 | 0.0 | 0.00 | 0.05 | 0.00 | 93 | 1053.7 |
| 20260904022401 | 18 | 157 | 183.5 | 0.0 | 0.00 | 0.05 | 0.00 | 93 | 1054.0 |
| 20260904021739 | 18 | 157 | 183.5 | 0.0 | 0.00 | 0.05 | 0.00 | 93 | 1054.3 |
| 20260904021117 | 18 | 157 | 183.5 | 0.0 | 0.00 | 0.05 | 0.00 | 93 | 1054.2 |
| 20260904020504 | 18 | 157 | 183.5 | 0.0 | 0.00 | 0.05 | 0.00 | 93 | 1054.2 |
| 20260904015905 | 18 | 157 | 183.5 | 0.0 | 0.00 | 0.05 | 0.00 | 93 | 1054.3 |
| 20260904015244 | 18 | 157 | 183.5 | 0.0 | 0.00 | 0.05 | 0.00 | 93 | 1054.3 |
| 20260904014622 | 18 | 247 | 0.0 | 0.0 | 0.00 | 0.05 | 0.00 | 93 | 1054.4 |
| 20260904014350 | 18 | 225 | 20.9 | 0.0 | 0.00 | 0.05 | 0.00 | 93 | 1054.5 |
| 20260904014244 | 18 | 202 | 9.7 | 0.0 | 0.00 | 0.05 | 0.00 | 93 | 1054.4 |
| 20260904014138 | 18 | 202 | 8.0 | 0.0 | 0.00 | 0.05 | 0.00 | 93 | 1054.5 |
| 20260904014025 | 18 | 180 | 11.3 | 0.0 | 0.00 | 0.05 | 0.00 | 93 | 1054.5 |
| 20260904013921 | 18 | 202 | 0.0 | 0.0 | 0.00 | 0.05 | 0.00 | 93 | 1054.6 |
| 20260904013815 | 18 | 202 | 11.3 | 0.0 | 0.00 | 0.05 | 0.00 | 93 | 1054.6 |
| 20260904013710 | 18 | 225 | 14.5 | 0.0 | 0.00 | 0.05 | 0.00 | 93 | 1054.6 |
| 20260904013604 | 18 | 157 | 6.4 | 0.0 | 0.00 | 0.05 | 0.00 | 93 | 1054.7 |
| 20260904013435 | 18 | 180 | 8.0 | 0.0 | 0.00 | 0.05 | 0.00 | 93 | 1054.7 |
| 20260904013322 | 18 | 157 | 8.0 | 0.0 | 0.00 | 0.05 | 0.00 | 93 | 1054.8 |
| 20260904013217 | 18 | 225 | 12.9 | 0.0 | 0.00 | 0.05 | 0.00 | 93 | 1054.8 |
| 20260904013055 | 18 | 202 | 8.0 | 0.0 | 0.00 | 0.05 | 0.00 | 93 | 1054.9 |
| 20260904012935 | 18 | 180 | 9.7 | 0.0 | 0.00 | 0.05 | 0.00 | 93 | 1054.9 |
| 20260904012822 | 18 | 270 | 6.4 | 0.0 | 0.00 | 0.05 | 0.00 | 93 | 1054.9 |
| 20260904012716 | 18 | 225 | 11.3 | 0.0 | 0.00 | 0.05 | 0.00 | 93 | 1055.0 |
| 20260904012555 | 18 | 180 | 6.4 | 0.0 | 0.00 | 0.05 | 0.00 | 93 | 1055.2 |
| 20260904012442 | 18 | 180 | 0.0 | 0.0 | 0.00 | 0.05 | 0.00 | 93 | 1055.1 |
| 20260904012330 | 18 | 202 | 4.8 | 0.0 | 0.00 | 0.05 | 0.00 | 93 | 1055.1 |
| 20260904012224 | 18 | 180 | 11.3 | 0.0 | 0.00 | 0.05 | 0.00 | 93 | 1055.1 |
| 20260904012111 | 18 | 180 | 6.4 | 0.0 | 0.00 | 0.05 | 0.00 | 93 | 1055.2 |
| 20260904011949 | 18 | 202 | 11.3 | 0.0 | 0.00 | 0.05 | 0.00 | 93 | 1055.2 |
| 20260904011836 | 18 | 202 | 9.7 | 0.0 | 0.00 | 0.05 | 0.00 | 93 | 1055.1 |
| 20260904011715 | 18 | 202 | 6.4 | 0.0 | 0.00 | 0.05 | 0.00 | 93 | 1055.2 |
| 20260904011603 | 18 | 180 | 9.7 | 0.0 | 0.00 | 0.05 | 0.00 | 93 | 1055.3 |
| 20260904011450 | 18 | 202 | 11.3 | 0.0 | 0.00 | 0.05 | 0.00 | 93 | 1055.2 |
| 20260904011343 | 18 | 225 | 11.3 | 0.0 | 0.00 | 0.05 | 0.00 | 93 | 1055.3 |
| 20260904011225 | 18 | 225 | 9.7 | 0.0 | 0.00 | 0.05 | 0.00 | 93 | 1055.3 |
| 20260904011118 | 18 | 202 | 16.1 | 0.0 | 0.00 | 0.05 | 0.00 | 93 | 1055.3 |
| 20260904011005 | 18 | 180 | 3.2 | 0.0 | 0.00 | 0.05 | 0.00 | 93 | 1055.4 |
| 20260904010900 | 18 | 225 | 6.4 | 0.0 | 0.00 | 0.05 | 0.00 | 93 | 1055.4 |
| 20260904010756 | 18 | 202 | 14.5 | 0.0 | 0.00 | 0.05 | 0.00 | 93 | 1055.5 |
| 20260904010650 | 18 | 202 | 6.4 | 0.0 | 0.00 | 0.05 | 0.00 | 93 | 1055.5 |
| 20260904010545 | 18 | 180 | 0.0 | 0.0 | 0.00 | 0.05 | 0.00 | 93 | 1055.5 |
| 20260904010432 | 18 | 202 | 16.1 | 0.0 | 0.00 | 0.05 | 0.00 | 93 | 1055.5 |
| 20260904010312 | 18 | 202 | 4.8 | 0.0 | 0.00 | 0.05 | 0.00 | 93 | 1055.6 |
| 20260904005946 | 18 | 247 | 11.3 | 0.0 | 0.00 | 0.05 | 0.00 | 93 | 1055.7 |
| 20260904005835 | 18 | 202 | 8.0 | 0.0 | 0.00 | 0.05 | 0.00 | 92 | 1055.5 |
| 20260904005729 | 18 | 180 | 0.0 | 0.0 | 0.00 | 0.05 | 0.00 | 92 | 1055.6 |
| 20260904005616 | 18 | 247 | 3.2 | 0.0 | 0.00 | 0.05 | 0.00 | 93 | 1055.7 |
| 20260904005513 | 18 | 180 | 0.0 | 0.0 | 0.00 | 0.05 | 0.00 | 92 | 1055.7 |
| 20260904005358 | 18 | 247 | 6.4 | 0.0 | 0.00 | 0.05 | 0.00 | 92 | 1055.8 |
| 20260904005245 | 18 | 157 | 0.0 | 0.0 | 0.00 | 0.05 | 0.00 | 92 | 1055.9 |
| 20260904005139 | 18 | 202 | 0.0 | 0.0 | 0.00 | 0.05 | 0.00 | 92 | 1055.9 |
| 20260904005034 | 18 | 225 | 0.0 | 0.0 | 0.00 | 0.05 | 0.00 | 92 | 1055.9 |
| 20260904004928 | 18 | 180 | 4.8 | 0.0 | 0.00 | 0.05 | 0.00 | 92 | 1055.9 |
| 20260904004813 | 18 | 202 | 8.0 | 0.0 | 0.00 | 0.05 | 0.00 | 92 | 1055.9 |
| 20260904004702 | 18 | 157 | 9.7 | 0.0 | 0.00 | 0.05 | 0.00 | 92 | 1056.0 |
| 20260904004553 | 18 | 180 | 11.3 | 0.0 | 0.00 | 0.05 | 0.00 | 92 | 1056.0 |
| 20260904004439 | 18 | 202 | 9.7 | 0.0 | 0.00 | 0.05 | 0.00 | 92 | 1056.0 |
| 20260904004325 | 17 | 202 | 0.0 | 0.0 | 0.00 | 0.05 | 0.00 | 92 | 1056.0 |
| 20260904004219 | 17 | 180 | 0.0 | 0.0 | 0.00 | 0.05 | 0.00 | 92 | 1056.0 |
| 20260904004113 | 17 | 180 | 0.0 | 0.0 | 0.00 | 0.05 | 0.00 | 92 | 1056.0 |
| 20260904004007 | 17 | 180 | 0.0 | 0.0 | 0.00 | 0.05 | 0.00 | 92 | 1056.1 |
| 20260904003901 | 17 | 180 | 14.5 | 0.0 | 0.00 | 0.05 | 0.00 | 92 | 1056.1 |
| 20260904003756 | 17 | 180 | 4.8 | 0.0 | 0.00 | 0.05 | 0.00 | 92 | 1056.1 |
| 20260904003651 | 17 | 180 | 0.0 | 0.0 | 0.00 | 0.05 | 0.00 | 92 | 1056.1 |
| 20260904003545 | 17 | 225 | 6.4 | 0.0 | 0.00 | 0.05 | 0.00 | 91 | 1056.0 |
| 20260904003440 | 17 | 202 | 9.7 | 0.0 | 0.00 | 0.05 | 0.00 | 91 | 1056.2 |
| 20260904003334 | 17 | 202 | 0.0 | 0.0 | 0.00 | 0.05 | 0.00 | 91 | 1056.2 |
| 20260904003221 | 17 | 180 | 0.0 | 0.0 | 0.00 | 0.05 | 0.00 | 91 | 1056.1 |
| 20260904003108 | 17 | 180 | 0.0 | 0.0 | 0.00 | 0.05 | 0.00 | 91 | 1056.2 |
| 20260904002955 | 17 | 202 | 6.4 | 0.0 | 0.00 | 0.05 | 0.00 | 91 | 1056.2 |
| 20260904002842 | 17 | 202 | 9.7 | 0.0 | 0.00 | 0.05 | 0.00 | 91 | 1056.2 |
| 20260904002737 | 17 | 202 | 6.4 | 0.0 | 0.00 | 0.05 | 0.00 | 91 | 1056.2 |
| 20260904002632 | 17 | 202 | 4.8 | 0.0 | 0.00 | 0.05 | 0.00 | 91 | 1056.2 |
| 20260904002525 | 17 | 202 | 6.4 | 0.0 | 0.00 | 0.05 | 0.00 | 91 | 1056.1 |
| 20260904002420 | 17 | 180 | 6.4 | 0.0 | 0.00 | 0.05 | 0.00 | 91 | 1056.2 |
| 20260904002313 | 17 | 180 | 14.5 | 0.0 | 0.00 | 0.05 | 0.00 | 91 | 1056.3 |
| 20260904002152 | 17 | 202 | 16.1 | 0.0 | 0.00 | 0.05 | 0.00 | 91 | 1056.3 |
| 20260904002046 | 17 | 202 | 8.0 | 0.0 | 0.00 | 0.05 | 0.00 | 91 | 1056.4 |
| 20260904001932 | 17 | 225 | 8.0 | 0.0 | 0.00 | 0.05 | 0.00 | 91 | 1056.3 |
| 20260904001817 | 17 | 202 | 6.4 | 0.0 | 0.00 | 0.05 | 0.00 | 91 | 1056.4 |
| 20260904001655 | 17 | 180 | 0.0 | 0.0 | 0.00 | 0.05 | 0.00 | 91 | 1056.4 |
| 20260904001542 | 17 | 247 | 0.0 | 0.0 | 0.00 | 0.05 | 0.00 | 91 | 1056.5 |
| 20260904001429 | 17 | 247 | 0.0 | 0.0 | 0.00 | 0.05 | 0.00 | 91 | 1056.4 |
| 20260904001325 | 17 | 225 | 0.0 | 0.0 | 0.00 | 0.05 | 0.00 | 91 | 1056.5 |
| 20260904001218 | 17 | 157 | 0.0 | 0.0 | 0.00 | 0.05 | 0.00 | 91 | 1056.4 |
| 20260904001113 | 17 | 225 | 1.6 | 0.0 | 0.00 | 0.05 | 0.00 | 91 | 1056.4 |
| 20260904001006 | 17 | 225 | 9.7 | 0.0 | 0.00 | 0.05 | 0.00 | 91 | 1056.4 |
| 20260904000854 | 17 | 202 | 8.0 | 0.0 | 0.00 | 0.05 | 0.00 | 91 | 1056.4 |
| 20260904000749 | 17 | 202 | 0.0 | 0.0 | 0.00 | 0.05 | 0.00 | 91 | 1056.4 |
| 20260904000644 | 17 | 180 | 12.9 | 0.0 | 0.00 | 0.05 | 0.00 | 90 | 1056.4 |
| 20260904000537 | 17 | 202 | 11.3 | 0.0 | 0.00 | 0.05 | 0.00 | 90 | 1056.4 |
| 20260904000425 | 17 | 202 | 6.4 | 0.0 | 0.00 | 0.05 | 0.00 | 90 | 1056.5 |
| 20260904000312 | 17 | 202 | 0.0 | 0.0 | 0.00 | 0.05 | 0.00 | 90 | 1056.6 |
| 20260904000156 | 17 | 202 | 3.2 | 0.0 | 0.00 | 0.05 | 0.00 | 90 | 1056.7 |
| 20260904000044 | 17 | 202 | 0.0 | 0.0 | 0.00 | 0.05 | 0.00 | 90 | 1056.7 |
| 20260903235930 | 17 | 180 | 4.8 | 0.0 | 0.00 | 0.05 | 0.00 | 90 | 1056.7 |
| 20260903235817 | 17 | 225 | 6.4 | 0.0 | 0.00 | 0.05 | 0.00 | 90 | 1056.7 |
| 20260903235712 | 17 | 225 | 6.4 | 0.0 | 0.00 | 0.05 | 0.00 | 90 | 1056.7 |
| 20260903235558 | 17 | 202 | 0.0 | 0.0 | 0.00 | 0.05 | 0.00 | 90 | 1056.7 |
| 20260903235446 | 17 | 225 | 3.2 | 0.0 | 0.00 | 0.05 | 0.00 | 90 | 1056.7 |
| 20260903235332 | 17 | 180 | 6.4 | 0.0 | 0.00 | 0.05 | 0.00 | 89 | 1056.7 |
| 20260903235219 | 17 | 202 | 4.8 | 0.0 | 0.00 | 0.05 | 0.00 | 89 | 1056.7 |
| 20260903235058 | 17 | 225 | 9.7 | 0.0 | 0.00 | 0.05 | 0.00 | 89 | 1056.8 |
| 20260903234929 | 17 | 202 | 8.0 | 0.0 | 0.00 | 0.05 | 0.00 | 89 | 1056.9 |
| 20260903234824 | 17 | 180 | 0.0 | 0.0 | 0.00 | 0.05 | 0.00 | 89 | 1056.9 |
| 20260903234710 | 17 | 180 | 3.2 | 0.0 | 0.00 | 0.05 | 0.00 | 89 | 1056.9 |
| 20260903234542 | 17 | 180 | 8.0 | 0.0 | 0.00 | 0.05 | 0.00 | 89 | 1056.9 |
| 20260903234436 | 17 | 180 | 4.8 | 0.0 | 0.00 | 0.05 | 0.00 | 89 | 1057.0 |
| 20260903234317 | 17 | 202 | 0.0 | 0.0 | 0.00 | 0.05 | 0.00 | 89 | 1057.0 |
| 20260903234210 | 17 | 180 | 8.0 | 0.0 | 0.00 | 0.05 | 0.00 | 89 | 1056.9 |
| 20260903234042 | 17 | 225 | 0.0 | 0.0 | 0.00 | 0.05 | 0.00 | 89 | 1056.9 |
| 20260903233936 | 17 | 180 | 6.4 | 0.0 | 0.00 | 0.05 | 0.00 | 89 | 1057.0 |
| 20260903233833 | 17 | 180 | 0.0 | 0.0 | 0.00 | 0.05 | 0.00 | 89 | 1056.9 |
| 20260903233728 | 17 | 202 | 0.0 | 0.0 | 0.00 | 0.05 | 0.00 | 89 | 1056.9 |
| 20260903233613 | 17 | 270 | 0.0 | 0.0 | 0.00 | 0.05 | 0.00 | 89 | 1057.1 |
| 20260903233452 | 17 | 202 | 0.0 | 0.0 | 0.00 | 0.05 | 0.00 | 89 | 1057.1 |
| 20260903233347 | 17 | 202 | 0.0 | 0.0 | 0.00 | 0.05 | 0.00 | 89 | 1057.2 |
| 20260903233227 | 17 | 180 | 0.0 | 0.0 | 0.00 | 0.05 | 0.00 | 89 | 1057.1 |
| 20260903233119 | 17 | 180 | 6.4 | 0.0 | 0.00 | 0.05 | 0.00 | 89 | 1057.2 |
| 20260903233000 | 17 | 202 | 0.0 | 0.0 | 0.00 | 0.05 | 0.00 | 89 | 1057.2 |
| 20260903232838 | 17 | 202 | 6.4 | 0.0 | 0.00 | 0.05 | 0.00 | 88 | 1057.3 |
| 20260903232715 | 17 | 202 | 0.0 | 0.0 | 0.00 | 0.05 | 0.00 | 88 | 1057.3 |
| 20260903232555 | 17 | 202 | 8.0 | 0.0 | 0.00 | 0.05 | 0.00 | 88 | 1057.2 |
| 20260903232434 | 17 | 202 | 0.0 | 0.0 | 0.00 | 0.05 | 0.00 | 88 | 1057.3 |
| 20260903232329 | 17 | 225 | 6.4 | 0.0 | 0.00 | 0.05 | 0.00 | 88 | 1057.3 |
| 20260903232207 | 17 | 225 | 0.0 | 0.0 | 0.00 | 0.05 | 0.00 | 88 | 1057.3 |
| 20260903232046 | 17 | 180 | 0.0 | 0.0 | 0.00 | 0.05 | 0.00 | 88 | 1057.3 |
| 20260903231925 | 17 | 225 | 0.0 | 0.0 | 0.00 | 0.05 | 0.00 | 88 | 1057.3 |
| 20260903231756 | 17 | 180 | 0.0 | 0.0 | 0.00 | 0.05 | 0.00 | 88 | 1057.3 |
| 20260903231637 | 17 | 247 | 0.0 | 0.0 | 0.00 | 0.05 | 0.00 | 88 | 1057.3 |
| 20260903231530 | 17 | 202 | 0.0 | 0.0 | 0.00 | 0.05 | 0.00 | 88 | 1057.4 |
| 20260903231416 | 17 | 157 | 0.0 | 0.0 | 0.00 | 0.05 | 0.00 | 88 | 1057.4 |
| 20260903231250 | 17 | 225 | 0.0 | 0.0 | 0.00 | 0.05 | 0.00 | 88 | 1057.5 |
| 20260903231143 | 17 | 157 | 3.2 | 0.0 | 0.00 | 0.05 | 0.00 | 88 | 1057.4 |
| 20260903231039 | 17 | 180 | 0.0 | 0.0 | 0.00 | 0.05 | 0.00 | 88 | 1057.5 |
| 20260903230933 | 17 | 247 | 0.0 | 0.0 | 0.00 | 0.05 | 0.00 | 88 | 1057.5 |
| 20260903230827 | 17 | 202 | 1.6 | 0.0 | 0.00 | 0.05 | 0.00 | 88 | 1057.5 |
| 20260903230657 | 17 | 157 | 8.0 | 0.0 | 0.00 | 0.05 | 0.00 | 88 | 1057.6 |
| 20260903230536 | 17 | 270 | 0.0 | 0.0 | 0.00 | 0.05 | 0.00 | 88 | 1057.6 |
| 20260903230407 | 17 | 202 | 4.8 | 0.0 | 0.00 | 0.05 | 0.00 | 88 | 1057.7 |
| 20260903230245 | 17 | 225 | 0.0 | 0.0 | 0.00 | 0.05 | 0.00 | 87 | 1057.7 |
| 20260903230127 | 17 | 247 | 0.0 | 0.0 | 0.00 | 0.05 | 0.00 | 87 | 1057.8 |
| 20260903230020 | 17 | 247 | 0.0 | 0.0 | 0.00 | 0.05 | 0.00 | 87 | 1057.7 |
| 20260903225909 | 17 | 247 | 0.0 | 0.0 | 0.00 | 0.05 | 0.00 | 87 | 1057.8 |
| 20260903225802 | 17 | 247 | 0.0 | 0.0 | 0.00 | 0.05 | 0.00 | 87 | 1057.7 |
| 20260903225657 | 17 | 270 | 0.0 | 0.0 | 0.00 | 0.05 | 0.00 | 87 | 1057.8 |
| 20260903225551 | 17 | 202 | 0.0 | 0.0 | 0.00 | 0.05 | 0.00 | 87 | 1057.8 |
| 20260903225438 | 17 | 225 | 0.0 | 0.0 | 0.00 | 0.05 | 0.00 | 87 | 1057.6 |
| 20260903225318 | 17 | 202 | 0.0 | 0.0 | 0.00 | 0.05 | 0.00 | 87 | 1057.8 |
| 20260903225214 | 17 | 225 | 0.0 | 0.0 | 0.00 | 0.05 | 0.00 | 87 | 1057.6 |
| 20260903225107 | 17 | 202 | 8.0 | 0.0 | 0.00 | 0.05 | 0.00 | 87 | 1057.6 |
| 20260903224937 | 17 | 225 | 8.0 | 0.0 | 0.00 | 0.05 | 0.00 | 86 | 1057.7 |
| 20260903224824 | 17 | 202 | 12.9 | 0.0 | 0.00 | 0.05 | 0.00 | 86 | 1057.8 |
| 20260903224712 | 17 | 202 | 0.0 | 0.0 | 0.00 | 0.05 | 0.00 | 86 | 1057.8 |
| 20260903224607 | 17 | 180 | 9.7 | 0.0 | 0.00 | 0.05 | 0.00 | 86 | 1057.6 |
| 20260903224455 | 17 | 225 | 0.0 | 0.0 | 0.00 | 0.05 | 0.00 | 86 | 1057.7 |
| 20260903224343 | 17 | 202 | 9.7 | 0.0 | 0.00 | 0.05 | 0.00 | 86 | 1057.7 |
| 20260903224235 | 17 | 247 | 0.0 | 0.0 | 0.00 | 0.05 | 0.00 | 86 | 1057.7 |
| 20260903224115 | 17 | 225 | 0.0 | 0.0 | 0.00 | 0.05 | 0.00 | 86 | 1057.7 |
| 20260903224003 | 17 | 247 | 0.0 | 0.0 | 0.00 | 0.05 | 0.00 | 86 | 1057.9 |
| 20260903223857 | 17 | 247 | 4.8 | 0.0 | 0.00 | 0.05 | 0.00 | 86 | 1057.8 |
| 20260903223743 | 17 | 292 | 11.3 | 0.0 | 0.00 | 0.05 | 0.00 | 86 | 1057.8 |
| 20260903223621 | 17 | 247 | 6.4 | 0.0 | 0.00 | 0.05 | 0.00 | 86 | 1057.9 |
| 20260903223502 | 17 | 270 | 6.4 | 0.0 | 0.00 | 0.05 | 0.00 | 86 | 1057.9 |
| 20260903223358 | 17 | 270 | 0.0 | 0.0 | 0.00 | 0.05 | 0.00 | 86 | 1057.9 |
| 20260903223250 | 17 | 270 | 0.0 | 0.0 | 0.00 | 0.05 | 0.00 | 86 | 1058.0 |
| 20260903223130 | 17 | 225 | 6.4 | 0.0 | 0.00 | 0.05 | 0.00 | 86 | 1057.9 |
| 20260903223016 | 17 | 225 | 8.0 | 0.0 | 0.00 | 0.05 | 0.00 | 86 | 1058.0 |
| 20260903222857 | 17 | 270 | 8.0 | 0.0 | 0.00 | 0.05 | 0.00 | 86 | 1057.9 |
| 20260903222750 | 17 | 270 | 8.0 | 0.0 | 0.00 | 0.05 | 0.00 | 86 | 1058.0 |
| 20260903222637 | 17 | 270 | 3.2 | 0.0 | 0.00 | 0.05 | 0.00 | 86 | 1058.0 |
| 20260903222531 | 17 | 202 | 3.2 | 0.0 | 0.00 | 0.05 | 0.00 | 86 | 1058.1 |
| 20260903222402 | 17 | 270 | 8.0 | 0.0 | 0.00 | 0.05 | 0.00 | 86 | 1058.0 |
| 20260903222249 | 17 | 247 | 6.4 | 0.0 | 0.00 | 0.05 | 0.00 | 86 | 1058.0 |
| 20260903222143 | 17 | 180 | 3.2 | 0.0 | 0.00 | 0.05 | 0.00 | 86 | 1058.0 |
| 20260903222013 | 17 | 225 | 0.0 | 0.0 | 0.00 | 0.05 | 0.00 | 86 | 1058.0 |
| 20260903221859 | 18 | 225 | 0.0 | 0.0 | 0.00 | 0.05 | 0.00 | 86 | 1058.1 |
| 20260903221753 | 18 | 225 | 0.0 | 0.0 | 0.00 | 0.05 | 0.00 | 86 | 1058.1 |
| 20260903221647 | 18 | 225 | 6.4 | 0.0 | 0.00 | 0.05 | 0.00 | 86 | 1058.1 |
| 20260903221539 | 18 | 270 | 0.0 | 0.0 | 0.00 | 0.05 | 0.00 | 86 | 1058.0 |
| 20260903221412 | 18 | 247 | 0.0 | 0.0 | 0.00 | 0.05 | 0.00 | 86 | 1058.0 |
| 20260903221307 | 18 | 247 | 8.0 | 0.0 | 0.00 | 0.05 | 0.00 | 86 | 1058.1 |
| 20260903221158 | 18 | 270 | 4.8 | 0.0 | 0.00 | 0.05 | 0.00 | 86 | 1058.1 |
| 20260903221044 | 18 | 270 | 9.7 | 0.0 | 0.00 | 0.05 | 0.00 | 86 | 1058.1 |
| 20260903220929 | 18 | 247 | 6.4 | 0.0 | 0.00 | 0.05 | 0.00 | 86 | 1058.0 |
| 20260903220817 | 18 | 247 | 4.8 | 0.0 | 0.00 | 0.05 | 0.00 | 86 | 1058.1 |
| 20260903220709 | 18 | 292 | 3.2 | 0.0 | 0.00 | 0.05 | 0.00 | 86 | 1058.2 |
| 20260903220547 | 18 | 247 | 9.7 | 0.0 | 0.00 | 0.05 | 0.00 | 86 | 1058.2 |
| 20260903220441 | 18 | 270 | 9.7 | 0.0 | 0.00 | 0.05 | 0.00 | 86 | 1058.2 |
| 20260903220335 | 18 | 247 | 12.9 | 0.0 | 0.00 | 0.05 | 0.00 | 86 | 1058.2 |
| 20260903220229 | 18 | 270 | 9.7 | 0.0 | 0.00 | 0.05 | 0.00 | 86 | 1058.2 |
| 20260903220123 | 18 | 270 | 0.0 | 0.0 | 0.00 | 0.05 | 0.00 | 86 | 1058.2 |
| 20260903220017 | 18 | 202 | 0.0 | 0.0 | 0.00 | 0.05 | 0.00 | 86 | 1058.3 |
| 20260903215911 | 18 | 225 | 3.2 | 0.0 | 0.00 | 0.05 | 0.00 | 86 | 1058.3 |
| 20260903215805 | 18 | 292 | 9.7 | 0.0 | 0.00 | 0.05 | 0.00 | 86 | 1058.3 |
| 20260903215700 | 18 | 270 | 8.0 | 0.0 | 0.00 | 0.05 | 0.00 | 86 | 1058.3 |
| 20260903215553 | 18 | 225 | 6.4 | 0.0 | 0.00 | 0.05 | 0.00 | 86 | 1058.3 |
| 20260903215447 | 18 | 225 | 6.4 | 0.0 | 0.00 | 0.05 | 0.00 | 86 | 1058.2 |
| 20260903215332 | 18 | 270 | 9.7 | 0.0 | 0.00 | 0.05 | 0.00 | 86 | 1058.2 |
| 20260903215213 | 18 | 270 | 0.0 | 0.0 | 0.00 | 0.05 | 0.00 | 86 | 1058.3 |
| 20260903215104 | 18 | 270 | 0.0 | 0.0 | 0.00 | 0.05 | 0.00 | 86 | 1058.2 |
| 20260903214949 | 18 | 270 | 0.0 | 0.0 | 0.00 | 0.05 | 0.00 | 86 | 1058.3 |
| 20260903214818 | 18 | 270 | 6.4 | 0.0 | 0.00 | 0.05 | 0.00 | 86 | 1058.2 |
| 20260903214705 | 18 | 270 | 0.0 | 0.0 | 0.00 | 0.05 | 0.00 | 86 | 1058.2 |
| 20260903214600 | 18 | 247 | 0.0 | 0.0 | 0.00 | 0.05 | 0.00 | 86 | 1058.2 |
| 20260903214453 | 18 | 247 | 14.5 | 0.0 | 0.00 | 0.05 | 0.00 | 86 | 1058.3 |
| 20260903214347 | 18 | 202 | 4.8 | 0.0 | 0.00 | 0.05 | 0.00 | 86 | 1058.3 |
| 20260903214240 | 18 | 225 | 0.0 | 0.0 | 0.00 | 0.05 | 0.00 | 86 | 1058.2 |
| 20260903214120 | 18 | 247 | 4.8 | 0.0 | 0.00 | 0.05 | 0.00 | 86 | 1058.3 |
| 20260903214004 | 18 | 247 | 0.0 | 0.0 | 0.00 | 0.05 | 0.00 | 86 | 1058.4 |
| 20260903213850 | 18 | 270 | 0.0 | 0.0 | 0.00 | 0.05 | 0.00 | 86 | 1058.4 |
| 20260903213728 | 18 | 247 | 0.0 | 0.0 | 0.00 | 0.05 | 0.00 | 86 | 1058.3 |
| 20260903213612 | 18 | 270 | 8.0 | 0.0 | 0.00 | 0.05 | 0.00 | 86 | 1058.3 |
| 20260903213459 | 18 | 270 | 14.5 | 0.0 | 0.00 | 0.05 | 0.00 | 86 | 1058.3 |
| 20260903213353 | 18 | 292 | 11.3 | 0.0 | 0.00 | 0.05 | 0.00 | 86 | 1058.3 |
| 20260903213246 | 18 | 270 | 4.8 | 0.0 | 0.00 | 0.05 | 0.00 | 86 | 1058.4 |
| 20260903213124 | 18 | 270 | 8.0 | 0.0 | 0.00 | 0.05 | 0.00 | 86 | 1058.3 |
| 20260903213010 | 18 | 315 | 8.0 | 0.0 | 0.00 | 0.05 | 0.00 | 86 | 1058.4 |
| 20260903212856 | 18 | 135 | 3.2 | 0.0 | 0.00 | 0.05 | 0.00 | 86 | 1058.4 |
| 20260903212751 | 18 | 270 | 9.7 | 0.0 | 0.00 | 0.05 | 0.00 | 86 | 1058.4 |
| 20260903212645 | 18 | 225 | 8.0 | 0.0 | 0.00 | 0.05 | 0.00 | 86 | 1058.4 |
| 20260903212539 | 18 | 292 | 6.4 | 0.0 | 0.00 | 0.05 | 0.00 | 86 | 1058.4 |
| 20260903212410 | 18 | 202 | 9.7 | 0.0 | 0.00 | 0.05 | 0.00 | 87 | 1058.4 |
| 20260903212249 | 18 | 202 | 4.8 | 0.0 | 0.00 | 0.05 | 0.00 | 87 | 1058.4 |
| 20260903212129 | 18 | 247 | 6.4 | 0.0 | 0.00 | 0.05 | 0.00 | 87 | 1058.4 |
| 20260903212024 | 18 | 247 | 3.2 | 0.0 | 0.00 | 0.05 | 0.00 | 87 | 1058.4 |
| 20260903211920 | 18 | 270 | 9.7 | 0.0 | 0.00 | 0.05 | 0.00 | 87 | 1058.4 |
| 20260903211815 | 18 | 270 | 6.4 | 0.0 | 0.00 | 0.05 | 0.00 | 87 | 1058.4 |
| 20260903211708 | 18 | 247 | 0.0 | 0.0 | 0.00 | 0.05 | 0.00 | 87 | 1058.4 |
| 20260903211555 | 18 | 292 | 9.7 | 0.0 | 0.00 | 0.05 | 0.00 | 87 | 1058.4 |
| 20260903211442 | 18 | 270 | 8.0 | 0.0 | 0.00 | 0.05 | 0.00 | 87 | 1058.4 |
| 20260903211338 | 18 | 270 | 6.4 | 0.0 | 0.00 | 0.05 | 0.00 | 87 | 1058.4 |
| 20260903211234 | 18 | 270 | 8.0 | 0.0 | 0.00 | 0.05 | 0.00 | 87 | 1058.4 |
| 20260903211121 | 18 | 225 | 8.0 | 0.0 | 0.00 | 0.05 | 0.00 | 87 | 1058.3 |
| 20260903211006 | 18 | 270 | 0.0 | 0.0 | 0.00 | 0.05 | 0.00 | 87 | 1058.3 |
| 20260903210853 | 18 | 292 | 0.0 | 0.0 | 0.00 | 0.05 | 0.00 | 87 | 1058.4 |
| 20260903210750 | 18 | 270 | 3.2 | 0.0 | 0.00 | 0.05 | 0.00 | 87 | 1058.4 |
| 20260903210642 | 18 | 270 | 11.3 | 0.0 | 0.00 | 0.05 | 0.00 | 87 | 1058.4 |
| 20260903210529 | 18 | 292 | 9.7 | 0.0 | 0.00 | 0.05 | 0.00 | 87 | 1058.4 |
| 20260903210408 | 18 | 247 | 0.0 | 0.0 | 0.00 | 0.05 | 0.00 | 87 | 1058.5 |
| 20260903210255 | 18 | 225 | 4.8 | 0.0 | 0.00 | 0.05 | 0.00 | 87 | 1058.5 |
| 20260903210150 | 18 | 202 | 6.4 | 0.0 | 0.00 | 0.05 | 0.00 | 87 | 1058.5 |
| 20260903210036 | 18 | 247 | 8.0 | 0.0 | 0.00 | 0.05 | 0.00 | 87 | 1058.6 |
| 20260903205916 | 18 | 247 | 8.0 | 0.0 | 0.00 | 0.05 | 0.00 | 87 | 1058.7 |
| 20260903205803 | 18 | 247 | 8.0 | 0.0 | 0.00 | 0.05 | 0.00 | 87 | 1058.6 |
| 20260903205649 | 18 | 247 | 9.7 | 0.0 | 0.00 | 0.05 | 0.00 | 87 | 1058.7 |
| 20260903205531 | 18 | 270 | 8.0 | 0.0 | 0.00 | 0.05 | 0.00 | 87 | 1058.6 |
| 20260903205426 | 18 | 270 | 9.7 | 0.0 | 0.00 | 0.05 | 0.00 | 87 | 1058.7 |
| 20260903205319 | 18 | 270 | 8.0 | 0.0 | 0.00 | 0.05 | 0.00 | 87 | 1058.6 |
| 20260903205212 | 18 | 292 | 9.7 | 0.0 | 0.00 | 0.05 | 0.00 | 86 | 1058.7 |
| 20260903205053 | 18 | 247 | 11.3 | 0.0 | 0.00 | 0.05 | 0.00 | 86 | 1058.7 |
| 20260903204939 | 18 | 247 | 9.7 | 0.0 | 0.00 | 0.05 | 0.00 | 86 | 1058.7 |
| 20260903204825 | 18 | 270 | 6.4 | 0.0 | 0.00 | 0.05 | 0.00 | 86 | 1058.7 |
| 20260903204711 | 18 | 270 | 6.4 | 0.0 | 0.00 | 0.05 | 0.00 | 86 | 1058.6 |
| 20260903204604 | 18 | 247 | 0.0 | 0.0 | 0.00 | 0.05 | 0.00 | 86 | 1058.6 |
| 20260903204450 | 18 | 225 | 8.0 | 0.0 | 0.00 | 0.05 | 0.00 | 86 | 1058.6 |
| 20260903204337 | 18 | 292 | 8.0 | 0.0 | 0.00 | 0.05 | 0.00 | 86 | 1058.7 |
| 20260903204225 | 18 | 292 | 9.7 | 0.0 | 0.00 | 0.05 | 0.00 | 86 | 1058.7 |
| 20260903204116 | 18 | 270 | 4.8 | 0.0 | 0.00 | 0.05 | 0.00 | 86 | 1058.7 |
| 20260903204002 | 18 | 247 | 6.4 | 0.0 | 0.00 | 0.05 | 0.00 | 86 | 1058.6 |
| 20260903203847 | 18 | 247 | 9.7 | 0.0 | 0.00 | 0.05 | 0.00 | 86 | 1058.7 |
| 20260903203725 | 18 | 247 | 19.3 | 0.0 | 0.00 | 0.05 | 0.00 | 86 | 1058.7 |
| 20260903203611 | 18 | 270 | 12.9 | 0.0 | 0.00 | 0.05 | 0.00 | 86 | 1058.6 |
| 20260903203505 | 18 | 270 | 6.4 | 0.0 | 0.00 | 0.05 | 0.00 | 86 | 1058.7 |
| 20260903203350 | 18 | 247 | 4.8 | 0.0 | 0.00 | 0.05 | 0.00 | 86 | 1058.6 |
| 20260903203238 | 18 | 270 | 8.0 | 0.0 | 0.00 | 0.05 | 0.00 | 86 | 1058.7 |
| 20260903203129 | 18 | 270 | 9.7 | 0.0 | 0.00 | 0.05 | 0.00 | 86 | 1058.7 |
| 20260903203008 | 18 | 247 | 6.4 | 0.0 | 0.00 | 0.05 | 0.00 | 86 | 1058.7 |
| 20260903202902 | 18 | 270 | 4.8 | 0.0 | 0.00 | 0.05 | 0.00 | 86 | 1058.7 |
| 20260903202756 | 18 | 247 | 11.3 | 0.0 | 0.00 | 0.05 | 0.00 | 86 | 1058.7 |
| 20260903202641 | 18 | 270 | 0.0 | 0.0 | 0.00 | 0.05 | 0.00 | 85 | 1058.7 |
| 20260903202512 | 18 | 270 | 6.4 | 0.0 | 0.00 | 0.05 | 0.00 | 85 | 1058.7 |
| 20260903202352 | 18 | 270 | 8.0 | 0.0 | 0.00 | 0.05 | 0.00 | 85 | 1058.8 |
| 20260903202247 | 18 | 292 | 6.4 | 0.0 | 0.00 | 0.05 | 0.00 | 85 | 1058.7 |
| 20260903202141 | 18 | 270 | 12.9 | 0.0 | 0.00 | 0.05 | 0.00 | 85 | 1058.7 |
| 20260903202035 | 18 | 270 | 6.4 | 0.0 | 0.00 | 0.05 | 0.00 | 85 | 1058.7 |
| 20260903201928 | 18 | 270 | 8.0 | 0.0 | 0.00 | 0.05 | 0.00 | 85 | 1058.7 |
| 20260903201818 | 18 | 270 | 8.0 | 0.0 | 0.00 | 0.05 | 0.00 | 85 | 1058.7 |
| 20260903201710 | 18 | 270 | 11.3 | 0.0 | 0.00 | 0.05 | 0.00 | 85 | 1058.7 |
| 20260903201557 | 18 | 270 | 9.7 | 0.0 | 0.00 | 0.05 | 0.00 | 86 | 1058.7 |
| 20260903201451 | 18 | 225 | 17.7 | 0.0 | 0.00 | 0.05 | 0.00 | 86 | 1058.7 |
| 20260903201330 | 18 | 247 | 6.4 | 0.0 | 0.00 | 0.05 | 0.00 | 86 | 1058.7 |
| 20260903201214 | 18 | 270 | 9.7 | 0.0 | 0.00 | 0.05 | 0.00 | 86 | 1058.8 |
| 20260903201100 | 18 | 270 | 11.3 | 0.0 | 0.00 | 0.05 | 0.00 | 86 | 1058.7 |
| 20260903200956 | 18 | 247 | 14.5 | 0.0 | 0.00 | 0.05 | 0.00 | 86 | 1058.8 |
| 20260903200851 | 18 | 247 | 8.0 | 0.0 | 0.00 | 0.05 | 0.00 | 86 | 1058.8 |
| 20260903200745 | 18 | 270 | 9.7 | 0.0 | 0.00 | 0.05 | 0.00 | 86 | 1058.8 |
| 20260903200639 | 18 | 270 | 9.7 | 0.0 | 0.00 | 0.05 | 0.00 | 86 | 1058.8 |
| 20260903200520 | 18 | 292 | 9.7 | 0.0 | 0.00 | 0.05 | 0.00 | 86 | 1058.8 |
| 20260903200414 | 18 | 292 | 9.7 | 0.0 | 0.00 | 0.05 | 0.00 | 86 | 1058.8 |
| 20260903200307 | 18 | 270 | 12.9 | 0.0 | 0.00 | 0.05 | 0.00 | 86 | 1058.8 |
| 20260903200157 | 18 | 270 | 3.2 | 0.0 | 0.00 | 0.05 | 0.00 | 86 | 1058.8 |
| 20260903200048 | 18 | 247 | 9.7 | 0.0 | 0.00 | 0.05 | 0.00 | 86 | 1058.8 |
| 20260903195934 | 18 | 292 | 0.0 | 0.0 | 0.00 | 0.05 | 0.00 | 86 | 1058.8 |
| 20260903195827 | 18 | 225 | 14.5 | 0.0 | 0.00 | 0.05 | 0.00 | 86 | 1058.8 |
| 20260903195709 | 18 | 270 | 6.4 | 0.0 | 0.00 | 0.05 | 0.00 | 86 | 1058.7 |
| 20260903195603 | 18 | 270 | 8.0 | 0.0 | 0.00 | 0.05 | 0.00 | 86 | 1058.7 |
| 20260903195448 | 18 | 315 | 4.8 | 0.0 | 0.00 | 0.05 | 0.00 | 87 | 1058.7 |
| 20260903195336 | 18 | 247 | 14.5 | 0.0 | 0.00 | 0.05 | 0.00 | 87 | 1058.7 |
| 20260903195217 | 18 | 337 | 1.6 | 0.0 | 0.00 | 0.05 | 0.00 | 87 | 1058.6 |
| 20260903195109 | 18 | 270 | 12.9 | 0.0 | 0.00 | 0.05 | 0.00 | 87 | 1058.7 |
| 20260903194947 | 18 | 315 | 8.0 | 0.0 | 0.00 | 0.05 | 0.00 | 87 | 1058.7 |
| 20260903194830 | 18 | 292 | 9.7 | 0.0 | 0.00 | 0.05 | 0.00 | 87 | 1058.7 |
| 20260903194722 | 18 | 292 | 8.0 | 0.0 | 0.00 | 0.05 | 0.00 | 87 | 1058.7 |
| 20260903194609 | 18 | 0 | 11.3 | 0.0 | 0.00 | 0.05 | 0.00 | 86 | 1058.7 |
| 20260903194456 | 18 | 270 | 11.3 | 0.0 | 0.00 | 0.05 | 0.00 | 86 | 1058.7 |
| 20260903194351 | 18 | 292 | 11.3 | 0.0 | 0.00 | 0.05 | 0.00 | 86 | 1058.8 |
| 20260903194245 | 18 | 270 | 0.0 | 0.0 | 0.00 | 0.05 | 0.00 | 86 | 1058.7 |
| 20260903194135 | 18 | 270 | 9.7 | 0.0 | 0.00 | 0.05 | 0.00 | 86 | 1058.8 |
| 20260903194027 | 18 | 270 | 0.0 | 0.0 | 0.00 | 0.05 | 0.00 | 86 | 1058.8 |
| 20260903193907 | 18 | 315 | 20.9 | 0.0 | 0.00 | 0.05 | 0.00 | 86 | 1058.8 |
| 20260903193803 | 18 | 292 | 6.4 | 0.0 | 0.00 | 0.05 | 0.00 | 86 | 1058.8 |
| 20260903193655 | 18 | 315 | 19.3 | 0.0 | 0.00 | 0.05 | 0.00 | 86 | 1058.8 |
| 20260903193542 | 18 | 292 | 9.7 | 0.0 | 0.00 | 0.05 | 0.00 | 86 | 1058.9 |
| 20260903193436 | 18 | 292 | 9.7 | 0.0 | 0.00 | 0.05 | 0.00 | 86 | 1058.9 |
| 20260903193329 | 18 | 292 | 9.7 | 0.0 | 0.00 | 0.05 | 0.00 | 86 | 1058.8 |
| 20260903193215 | 18 | 247 | 4.8 | 0.0 | 0.00 | 0.05 | 0.00 | 86 | 1058.8 |
| 20260903193102 | 18 | 225 | 6.4 | 0.0 | 0.00 | 0.05 | 0.00 | 86 | 1058.8 |
| 20260903192958 | 18 | 270 | 4.8 | 0.0 | 0.00 | 0.05 | 0.00 | 86 | 1058.9 |
| 20260903192850 | 18 | 292 | 6.4 | 0.0 | 0.00 | 0.05 | 0.00 | 86 | 1058.8 |
| 20260903192737 | 18 | 247 | 8.0 | 0.0 | 0.00 | 0.05 | 0.00 | 86 | 1058.7 |
| 20260903192624 | 18 | 292 | 6.4 | 0.0 | 0.00 | 0.05 | 0.00 | 86 | 1058.6 |
| 20260903192518 | 18 | 247 | 9.7 | 0.0 | 0.00 | 0.05 | 0.00 | 86 | 1058.7 |
| 20260903192413 | 18 | 270 | 9.7 | 0.0 | 0.00 | 0.05 | 0.00 | 86 | 1058.7 |
| 20260903192307 | 18 | 247 | 11.3 | 0.0 | 0.00 | 0.05 | 0.00 | 86 | 1058.7 |
| 20260903192200 | 18 | 270 | 8.0 | 0.0 | 0.00 | 0.05 | 0.00 | 86 | 1058.6 |
| 20260903192049 | 18 | 292 | 16.1 | 0.0 | 0.00 | 0.05 | 0.00 | 86 | 1058.6 |
| 20260903191935 | 18 | 315 | 12.9 | 0.0 | 0.00 | 0.05 | 0.00 | 86 | 1058.8 |
| 20260903191830 | 18 | 292 | 11.3 | 0.0 | 0.00 | 0.05 | 0.00 | 86 | 1058.6 |
| 20260903191724 | 18 | 270 | 3.2 | 0.0 | 0.00 | 0.05 | 0.00 | 86 | 1058.6 |
| 20260903191603 | 18 | 270 | 9.7 | 0.0 | 0.00 | 0.05 | 0.00 | 86 | 1058.7 |
| 20260903191433 | 18 | 247 | 9.7 | 0.0 | 0.00 | 0.05 | 0.00 | 86 | 1058.8 |
| 20260903191319 | 18 | 292 | 8.0 | 0.0 | 0.00 | 0.05 | 0.00 | 86 | 1058.8 |
| 20260903191150 | 18 | 270 | 0.0 | 0.0 | 0.00 | 0.05 | 0.00 | 86 | 1058.8 |
| 20260903191038 | 18 | 292 | 6.4 | 0.0 | 0.00 | 0.05 | 0.00 | 86 | 1058.7 |
| 20260903190908 | 18 | 270 | 4.8 | 0.0 | 0.00 | 0.05 | 0.00 | 86 | 1058.8 |
| 20260903190754 | 18 | 270 | 8.0 | 0.0 | 0.00 | 0.05 | 0.00 | 86 | 1058.7 |
| 20260903190649 | 18 | 270 | 20.9 | 0.0 | 0.00 | 0.05 | 0.00 | 86 | 1058.7 |
| 20260903190545 | 18 | 270 | 9.7 | 0.0 | 0.00 | 0.05 | 0.00 | 86 | 1058.7 |
| 20260903190438 | 18 | 292 | 6.4 | 0.0 | 0.00 | 0.05 | 0.00 | 86 | 1058.7 |
| 20260903190333 | 18 | 270 | 9.7 | 0.0 | 0.00 | 0.05 | 0.00 | 86 | 1058.7 |
| 20260903190226 | 18 | 292 | 11.3 | 0.0 | 0.00 | 0.05 | 0.00 | 86 | 1058.8 |
| 20260903190104 | 18 | 270 | 14.5 | 0.0 | 0.00 | 0.05 | 0.00 | 86 | 1058.7 |
| 20260903185950 | 18 | 247 | 16.1 | 0.0 | 0.00 | 0.05 | 0.00 | 86 | 1058.7 |
| 20260903185836 | 18 | 270 | 16.1 | 0.0 | 0.00 | 0.05 | 0.00 | 86 | 1058.6 |
| 20260903185731 | 18 | 225 | 6.4 | 0.0 | 0.00 | 0.05 | 0.00 | 86 | 1058.6 |
| 20260903185618 | 18 | 270 | 12.9 | 0.0 | 0.00 | 0.05 | 0.00 | 86 | 1058.6 |
| 20260903185505 | 18 | 247 | 11.3 | 0.0 | 0.00 | 0.05 | 0.00 | 86 | 1058.6 |
| 20260903185352 | 18 | 247 | 12.9 | 0.0 | 0.00 | 0.05 | 0.00 | 86 | 1058.6 |
| 20260903185244 | 18 | 247 | 8.0 | 0.0 | 0.00 | 0.05 | 0.00 | 86 | 1058.7 |
| 20260903185132 | 18 | 247 | 9.7 | 0.0 | 0.00 | 0.05 | 0.00 | 86 | 1058.7 |
| 20260903185026 | 18 | 292 | 6.4 | 0.0 | 0.00 | 0.05 | 0.00 | 86 | 1058.8 |
| 20260903184921 | 18 | 247 | 0.0 | 0.0 | 0.00 | 0.05 | 0.00 | 86 | 1058.8 |
| 20260903184815 | 18 | 270 | 11.3 | 0.0 | 0.00 | 0.05 | 0.00 | 86 | 1058.8 |
| 20260903184709 | 18 | 270 | 16.1 | 0.0 | 0.00 | 0.05 | 0.00 | 86 | 1058.7 |
| 20260903184603 | 18 | 270 | 9.7 | 0.0 | 0.00 | 0.05 | 0.00 | 86 | 1058.8 |
| 20260903184456 | 18 | 247 | 9.7 | 0.0 | 0.00 | 0.05 | 0.00 | 86 | 1058.8 |
| 20260903184334 | 18 | 270 | 0.0 | 0.0 | 0.00 | 0.05 | 0.00 | 86 | 1058.8 |
| 20260903184220 | 18 | 270 | 14.5 | 0.0 | 0.00 | 0.05 | 0.00 | 86 | 1058.8 |
| 20260903184057 | 18 | 292 | 11.3 | 0.0 | 0.00 | 0.05 | 0.00 | 85 | 1058.8 |
| 20260903183943 | 18 | 270 | 9.7 | 0.0 | 0.00 | 0.05 | 0.00 | 85 | 1058.7 |
| 20260903183821 | 18 | 315 | 0.0 | 0.0 | 0.00 | 0.05 | 0.00 | 85 | 1058.7 |
| 20260903183702 | 18 | 270 | 0.0 | 0.0 | 0.00 | 0.05 | 0.00 | 86 | 1058.7 |
| 20260903183554 | 18 | 292 | 6.4 | 0.0 | 0.00 | 0.05 | 0.00 | 86 | 1058.7 |
| 20260903183433 | 18 | 270 | 6.4 | 0.0 | 0.00 | 0.05 | 0.00 | 85 | 1058.7 |
| 20260903183306 | 18 | 247 | 16.1 | 0.0 | 0.00 | 0.05 | 0.00 | 85 | 1058.6 |
| 20260903183158 | 18 | 270 | 6.4 | 0.0 | 0.00 | 0.05 | 0.00 | 85 | 1058.6 |
| 20260903183044 | 18 | 292 | 9.7 | 0.0 | 0.00 | 0.05 | 0.00 | 84 | 1058.6 |
| 20260903182923 | 18 | 292 | 9.7 | 0.0 | 0.00 | 0.05 | 0.00 | 84 | 1058.7 |
| 20260903182818 | 18 | 247 | 12.9 | 0.0 | 0.00 | 0.05 | 0.00 | 84 | 1058.7 |
| 20260903182705 | 18 | 292 | 8.0 | 0.0 | 0.00 | 0.05 | 0.00 | 84 | 1058.9 |
| 20260903182559 | 18 | 247 | 9.7 | 0.0 | 0.00 | 0.05 | 0.00 | 84 | 1058.8 |
| 20260903182446 | 18 | 292 | 11.3 | 0.0 | 0.00 | 0.05 | 0.00 | 84 | 1058.8 |
| 20260903182340 | 18 | 292 | 12.9 | 0.0 | 0.00 | 0.05 | 0.00 | 84 | 1058.7 |
| 20260903182235 | 18 | 270 | 19.3 | 0.0 | 0.00 | 0.05 | 0.00 | 84 | 1058.8 |
| 20260903182122 | 18 | 270 | 9.7 | 0.0 | 0.00 | 0.05 | 0.00 | 84 | 1058.7 |
| 20260903182001 | 18 | 292 | 9.7 | 0.0 | 0.00 | 0.05 | 0.00 | 84 | 1058.7 |
| 20260903181848 | 18 | 270 | 6.4 | 0.0 | 0.00 | 0.05 | 0.00 | 84 | 1058.7 |
| 20260903181734 | 18 | 315 | 11.3 | 0.0 | 0.00 | 0.05 | 0.00 | 84 | 1058.7 |
| 20260903181614 | 18 | 270 | 12.9 | 0.0 | 0.00 | 0.05 | 0.00 | 84 | 1058.7 |
| 20260903181500 | 18 | 292 | 9.7 | 0.0 | 0.00 | 0.05 | 0.00 | 84 | 1058.7 |
| 20260903181332 | 18 | 292 | 6.4 | 0.0 | 0.00 | 0.05 | 0.00 | 84 | 1058.7 |
| 20260903181217 | 18 | 270 | 12.9 | 0.0 | 0.00 | 0.05 | 0.00 | 83 | 1058.7 |
| 20260903181055 | 18 | 292 | 0.0 | 0.0 | 0.00 | 0.05 | 0.00 | 83 | 1058.7 |
| 20260903180934 | 18 | 270 | 9.7 | 0.0 | 0.00 | 0.05 | 0.00 | 83 | 1058.7 |
| 20260903180813 | 18 | 292 | 19.3 | 0.0 | 0.00 | 0.05 | 0.00 | 83 | 1058.7 |
| 20260903180700 | 18 | 270 | 4.8 | 0.0 | 0.00 | 0.05 | 0.00 | 82 | 1058.6 |
| 20260903180546 | 18 | 270 | 12.9 | 0.0 | 0.00 | 0.05 | 0.00 | 82 | 1058.6 |
| 20260903180433 | 19 | 270 | 11.3 | 0.0 | 0.00 | 0.05 | 0.00 | 82 | 1058.6 |
| 20260903180320 | 19 | 225 | 8.0 | 0.0 | 0.00 | 0.05 | 0.00 | 82 | 1058.6 |
| 20260903180207 | 19 | 270 | 11.3 | 0.0 | 0.00 | 0.05 | 0.00 | 82 | 1058.5 |
| 20260903180053 | 19 | 270 | 8.0 | 0.0 | 0.00 | 0.05 | 0.00 | 82 | 1058.5 |
| 20260903175925 | 19 | 315 | 9.7 | 0.0 | 0.00 | 0.05 | 0.00 | 82 | 1058.5 |
| 20260903175806 | 19 | 270 | 9.7 | 0.0 | 0.00 | 0.05 | 0.00 | 82 | 1058.6 |
| 20260903175659 | 19 | 292 | 0.0 | 0.0 | 0.00 | 0.05 | 0.00 | 82 | 1058.7 |
| 20260903175553 | 19 | 292 | 11.3 | 0.0 | 0.00 | 0.05 | 0.00 | 81 | 1058.6 |
| 20260903175432 | 19 | 292 | 11.3 | 0.0 | 0.00 | 0.05 | 0.00 | 81 | 1058.6 |
| 20260903175318 | 19 | 292 | 14.5 | 0.0 | 0.00 | 0.05 | 0.00 | 81 | 1058.6 |
| 20260903175149 | 19 | 315 | 0.0 | 0.0 | 0.00 | 0.05 | 0.00 | 81 | 1058.6 |
| 20260903175036 | 19 | 315 | 8.0 | 0.0 | 0.00 | 0.05 | 0.00 | 81 | 1058.7 |
| 20260903174932 | 19 | 270 | 14.5 | 0.0 | 0.00 | 0.05 | 0.00 | 81 | 1058.7 |
| 20260903174827 | 19 | 292 | 9.7 | 0.0 | 0.00 | 0.05 | 0.00 | 82 | 1058.7 |
| 20260903174715 | 19 | 337 | 17.7 | 0.0 | 0.00 | 0.05 | 0.00 | 82 | 1058.7 |
| 20260903174600 | 19 | 0 | 4.8 | 0.0 | 0.00 | 0.05 | 0.00 | 82 | 1058.8 |
| 20260903174447 | 19 | 315 | 14.5 | 0.0 | 0.00 | 0.05 | 0.00 | 81 | 1058.8 |
| 20260903174334 | 19 | 270 | 20.9 | 0.0 | 0.00 | 0.05 | 0.00 | 81 | 1058.8 |
| 20260903174229 | 19 | 292 | 9.7 | 0.0 | 0.00 | 0.05 | 0.00 | 82 | 1058.7 |
| 20260903174116 | 19 | 270 | 17.7 | 0.0 | 0.00 | 0.05 | 0.00 | 82 | 1058.7 |
| 20260903174003 | 19 | 315 | 4.8 | 0.0 | 0.00 | 0.05 | 0.00 | 82 | 1058.7 |
| 20260903173858 | 19 | 270 | 24.1 | 0.0 | 0.00 | 0.05 | 0.00 | 82 | 1058.7 |
| 20260903173747 | 19 | 270 | 11.3 | 0.0 | 0.00 | 0.05 | 0.00 | 82 | 1058.8 |
| 20260903173641 | 19 | 315 | 6.4 | 0.0 | 0.00 | 0.05 | 0.00 | 82 | 1058.8 |
| 20260903173535 | 19 | 292 | 9.7 | 0.0 | 0.00 | 0.05 | 0.00 | 82 | 1058.8 |
| 20260903173430 | 19 | 292 | 6.4 | 0.0 | 0.00 | 0.05 | 0.00 | 82 | 1058.8 |
| 20260903173317 | 19 | 270 | 8.0 | 0.0 | 0.00 | 0.05 | 0.00 | 82 | 1058.8 |
| 20260903173211 | 19 | 292 | 8.0 | 0.0 | 0.00 | 0.05 | 0.00 | 82 | 1058.8 |
| 20260903173052 | 19 | 292 | 27.4 | 0.0 | 0.00 | 0.05 | 0.00 | 82 | 1058.8 |
| 20260903172945 | 19 | 270 | 14.5 | 0.0 | 0.00 | 0.05 | 0.00 | 81 | 1058.8 |
| 20260903172823 | 19 | 270 | 16.1 | 0.0 | 0.00 | 0.05 | 0.00 | 81 | 1058.8 |
| 20260903172703 | 19 | 292 | 14.5 | 0.0 | 0.00 | 0.05 | 0.00 | 81 | 1058.7 |
| 20260903172600 | 19 | 315 | 14.5 | 0.0 | 0.00 | 0.05 | 0.00 | 81 | 1058.7 |
| 20260903172455 | 19 | 315 | 11.3 | 0.0 | 0.00 | 0.05 | 0.00 | 81 | 1058.7 |
| 20260903172350 | 19 | 270 | 9.7 | 0.0 | 0.00 | 0.05 | 0.00 | 81 | 1058.7 |
| 20260903172235 | 19 | 292 | 12.9 | 0.0 | 0.00 | 0.05 | 0.00 | 80 | 1058.7 |
| 20260903172122 | 19 | 292 | 8.0 | 0.0 | 0.00 | 0.05 | 0.00 | 81 | 1058.7 |
| 20260903172017 | 19 | 270 | 6.4 | 0.0 | 0.00 | 0.05 | 0.00 | 80 | 1058.7 |
| 20260903171912 | 19 | 270 | 14.5 | 0.0 | 0.00 | 0.05 | 0.00 | 81 | 1058.7 |
| 20260903171801 | 19 | 270 | 12.9 | 0.0 | 0.00 | 0.05 | 0.00 | 81 | 1058.7 |
| 20260903171645 | 19 | 315 | 19.3 | 0.0 | 0.00 | 0.05 | 0.00 | 80 | 1058.8 |
| 20260903171532 | 19 | 292 | 20.9 | 0.0 | 0.00 | 0.05 | 0.00 | 81 | 1058.8 |
| 20260903171419 | 19 | 292 | 9.7 | 0.0 | 0.00 | 0.05 | 0.00 | 81 | 1058.8 |
| 20260903171307 | 19 | 225 | 14.5 | 0.0 | 0.00 | 0.05 | 0.00 | 81 | 1058.7 |
| 20260903171153 | 20 | 292 | 20.9 | 0.0 | 0.00 | 0.05 | 0.00 | 81 | 1058.8 |
| 20260903171039 | 20 | 315 | 19.3 | 0.0 | 0.00 | 0.05 | 0.00 | 81 | 1058.7 |
| 20260903170926 | 20 | 315 | 8.0 | 0.0 | 0.00 | 0.05 | 0.00 | 81 | 1058.7 |
| 20260903170822 | 20 | 315 | 8.0 | 0.0 | 0.00 | 0.05 | 0.00 | 81 | 1058.6 |
| 20260903170708 | 20 | 337 | 9.7 | 0.0 | 0.00 | 0.05 | 0.00 | 81 | 1058.6 |
| 20260903170555 | 20 | 292 | 11.3 | 0.0 | 0.00 | 0.05 | 0.00 | 81 | 1058.6 |
| 20260903170442 | 20 | 247 | 11.3 | 0.0 | 0.00 | 0.05 | 0.00 | 80 | 1058.6 |
| 20260903170329 | 20 | 292 | 12.9 | 0.0 | 0.00 | 0.05 | 0.00 | 80 | 1058.6 |
| 20260903170215 | 20 | 270 | 12.9 | 0.0 | 0.00 | 0.05 | 0.00 | 80 | 1058.7 |
| 20260903165952 | 20 | 270 | 17.7 | 0.0 | 0.00 | 0.05 | 0.00 | 81 | 1058.7 |
| 20260903165847 | 20 | 315 | 14.5 | 0.0 | 0.00 | 0.05 | 0.00 | 81 | 1058.7 |
| 20260903165739 | 20 | 292 | 19.3 | 0.0 | 0.00 | 0.05 | 0.00 | 81 | 1058.7 |
| 20260903165626 | 20 | 315 | 16.1 | 0.0 | 0.00 | 0.05 | 0.00 | 81 | 1058.7 |
| 20260903165513 | 20 | 292 | 0.0 | 0.0 | 0.00 | 0.05 | 0.00 | 80 | 1058.8 |
| 20260903165402 | 20 | 315 | 14.5 | 0.0 | 0.00 | 0.05 | 0.00 | 80 | 1058.7 |
| 20260903165257 | 20 | 270 | 9.7 | 0.0 | 0.00 | 0.05 | 0.00 | 80 | 1058.7 |
| 20260903165151 | 20 | 315 | 6.4 | 0.0 | 0.00 | 0.05 | 0.00 | 80 | 1058.7 |
| 20260903165047 | 20 | 270 | 20.9 | 0.0 | 0.00 | 0.05 | 0.00 | 81 | 1058.6 |
| 20260903164932 | 20 | 315 | 11.3 | 0.0 | 0.00 | 0.05 | 0.00 | 81 | 1058.6 |
| 20260903164818 | 20 | 270 | 9.7 | 0.0 | 0.00 | 0.05 | 0.00 | 81 | 1058.5 |
| 20260903164706 | 20 | 337 | 9.7 | 0.0 | 0.00 | 0.05 | 0.00 | 81 | 1058.5 |
| 20260903164552 | 20 | 270 | 9.7 | 0.0 | 0.00 | 0.05 | 0.00 | 81 | 1058.4 |
| 20260903164442 | 20 | 247 | 11.3 | 0.0 | 0.00 | 0.05 | 0.00 | 81 | 1058.4 |
| 20260903164334 | 20 | 292 | 6.4 | 0.0 | 0.00 | 0.05 | 0.00 | 81 | 1058.4 |
| 20260903164221 | 20 | 292 | 11.3 | 0.0 | 0.00 | 0.05 | 0.00 | 80 | 1058.3 |
| 20260903164116 | 20 | 292 | 25.7 | 0.0 | 0.00 | 0.05 | 0.00 | 80 | 1058.4 |
| 20260903164003 | 20 | 292 | 12.9 | 0.0 | 0.00 | 0.05 | 0.00 | 80 | 1058.4 |
| 20260903163850 | 20 | 270 | 12.9 | 0.0 | 0.00 | 0.05 | 0.00 | 80 | 1058.4 |
| 20260903163728 | 20 | 315 | 8.0 | 0.0 | 0.00 | 0.05 | 0.00 | 80 | 1058.4 |
| 20260903163607 | 20 | 315 | 8.0 | 0.0 | 0.00 | 0.05 | 0.00 | 80 | 1058.6 |
| 20260903163456 | 20 | 270 | 12.9 | 0.0 | 0.00 | 0.05 | 0.00 | 80 | 1058.6 |
| 20260903163350 | 20 | 292 | 11.3 | 0.0 | 0.00 | 0.05 | 0.00 | 80 | 1058.7 |
| 20260903163236 | 20 | 292 | 0.0 | 0.0 | 0.00 | 0.05 | 0.00 | 80 | 1058.7 |
| 20260903163123 | 20 | 225 | 11.3 | 0.0 | 0.00 | 0.05 | 0.00 | 80 | 1058.7 |
| 20260903163012 | 20 | 270 | 9.7 | 0.0 | 0.00 | 0.05 | 0.00 | 81 | 1058.7 |
| 20260903162905 | 20 | 292 | 11.3 | 0.0 | 0.00 | 0.05 | 0.00 | 80 | 1058.7 |
| 20260903162744 | 20 | 292 | 0.0 | 0.0 | 0.00 | 0.05 | 0.00 | 80 | 1058.7 |
| 20260903162639 | 20 | 315 | 9.7 | 0.0 | 0.00 | 0.05 | 0.00 | 80 | 1058.6 |
| 20260903162533 | 20 | 247 | 9.7 | 0.0 | 0.00 | 0.05 | 0.00 | 80 | 1058.5 |
| 20260903162427 | 20 | 225 | 0.0 | 0.0 | 0.00 | 0.05 | 0.00 | 80 | 1058.5 |
| 20260903162321 | 20 | 270 | 6.4 | 0.0 | 0.00 | 0.05 | 0.00 | 80 | 1058.5 |
| 20260903162215 | 20 | 247 | 9.7 | 0.0 | 0.00 | 0.05 | 0.00 | 80 | 1058.5 |
| 20260903162108 | 20 | 315 | 16.1 | 0.0 | 0.00 | 0.05 | 0.00 | 80 | 1058.5 |
| 20260903162003 | 20 | 270 | 12.9 | 0.0 | 0.00 | 0.05 | 0.00 | 80 | 1058.5 |
| 20260903161856 | 20 | 315 | 0.0 | 0.0 | 0.00 | 0.05 | 0.00 | 80 | 1058.5 |
| 20260903161741 | 20 | 292 | 6.4 | 0.0 | 0.00 | 0.05 | 0.00 | 79 | 1058.5 |
| 20260903161628 | 20 | 292 | 3.2 | 0.0 | 0.00 | 0.05 | 0.00 | 79 | 1058.5 |
| 20260903161515 | 20 | 292 | 17.7 | 0.0 | 0.00 | 0.05 | 0.00 | 80 | 1058.5 |
| 20260903161401 | 20 | 315 | 11.3 | 0.0 | 0.00 | 0.05 | 0.00 | 80 | 1058.6 |
| 20260903161247 | 20 | 292 | 8.0 | 0.0 | 0.00 | 0.05 | 0.00 | 79 | 1058.6 |
| 20260903161127 | 20 | 292 | 9.7 | 0.0 | 0.00 | 0.05 | 0.00 | 79 | 1058.6 |
| 20260903160958 | 20 | 270 | 24.1 | 0.0 | 0.00 | 0.05 | 0.00 | 79 | 1058.6 |
| 20260903160845 | 20 | 315 | 19.3 | 0.0 | 0.00 | 0.05 | 0.00 | 79 | 1058.5 |
| 20260903160732 | 20 | 292 | 11.3 | 0.0 | 0.00 | 0.05 | 0.00 | 79 | 1058.6 |
| 20260903160626 | 20 | 315 | 9.7 | 0.0 | 0.00 | 0.05 | 0.00 | 79 | 1058.6 |
| 20260903160521 | 20 | 315 | 11.3 | 0.0 | 0.00 | 0.05 | 0.00 | 79 | 1058.6 |
| 20260903160409 | 20 | 337 | 8.0 | 0.0 | 0.00 | 0.05 | 0.00 | 79 | 1058.5 |
| 20260903160239 | 20 | 292 | 11.3 | 0.0 | 0.00 | 0.05 | 0.00 | 79 | 1058.5 |
| 20260903160133 | 20 | 337 | 11.3 | 0.0 | 0.00 | 0.05 | 0.00 | 80 | 1058.4 |
| 20260903160021 | 20 | 315 | 17.7 | 0.0 | 0.00 | 0.05 | 0.00 | 80 | 1058.4 |
| 20260903155914 | 20 | 292 | 9.7 | 0.0 | 0.00 | 0.05 | 0.00 | 80 | 1058.4 |
| 20260903155800 | 20 | 270 | 27.4 | 0.0 | 0.00 | 0.05 | 0.00 | 79 | 1058.4 |
| 20260903155638 | 20 | 315 | 16.1 | 0.0 | 0.00 | 0.05 | 0.00 | 79 | 1058.4 |
| 20260903155533 | 20 | 315 | 9.7 | 0.0 | 0.00 | 0.05 | 0.00 | 80 | 1058.4 |
| 20260903155427 | 20 | 337 | 12.9 | 0.0 | 0.00 | 0.05 | 0.00 | 80 | 1058.3 |
| 20260903155321 | 20 | 180 | 9.7 | 0.0 | 0.00 | 0.05 | 0.00 | 80 | 1058.3 |
| 20260903155216 | 20 | 315 | 4.8 | 0.0 | 0.00 | 0.05 | 0.00 | 80 | 1058.3 |
| 20260903155109 | 20 | 315 | 12.9 | 0.0 | 0.00 | 0.05 | 0.00 | 80 | 1058.3 |
| 20260903154957 | 20 | 270 | 6.4 | 0.0 | 0.00 | 0.05 | 0.00 | 80 | 1058.3 |
| 20260903154843 | 20 | 315 | 8.0 | 0.0 | 0.00 | 0.05 | 0.00 | 79 | 1058.4 |
| 20260903154721 | 20 | 292 | 8.0 | 0.0 | 0.00 | 0.05 | 0.00 | 80 | 1058.5 |
| 20260903154616 | 20 | 337 | 14.5 | 0.0 | 0.00 | 0.05 | 0.00 | 80 | 1058.5 |
| 20260903154510 | 20 | 292 | 8.0 | 0.0 | 0.00 | 0.05 | 0.00 | 80 | 1058.4 |
| 20260903154404 | 20 | 270 | 17.7 | 0.0 | 0.00 | 0.05 | 0.00 | 80 | 1058.5 |
| 20260903154253 | 20 | 337 | 11.3 | 0.0 | 0.00 | 0.05 | 0.00 | 80 | 1058.4 |
| 20260903154146 | 20 | 270 | 6.4 | 0.0 | 0.00 | 0.05 | 0.00 | 80 | 1058.5 |
| 20260903154032 | 20 | 270 | 25.7 | 0.0 | 0.00 | 0.05 | 0.00 | 80 | 1058.5 |
| 20260903153903 | 20 | 292 | 14.5 | 0.0 | 0.00 | 0.05 | 0.00 | 80 | 1058.5 |
| 20260903153750 | 20 | 292 | 17.7 | 0.0 | 0.00 | 0.05 | 0.00 | 80 | 1058.5 |
| 20260903153629 | 20 | 270 | 17.7 | 0.0 | 0.00 | 0.05 | 0.00 | 80 | 1058.5 |
| 20260903153525 | 20 | 270 | 20.9 | 0.0 | 0.00 | 0.05 | 0.00 | 80 | 1058.5 |
| 20260903153420 | 20 | 315 | 14.5 | 0.0 | 0.00 | 0.05 | 0.00 | 80 | 1058.5 |
| 20260903153313 | 21 | 337 | 8.0 | 0.0 | 0.00 | 0.05 | 0.00 | 80 | 1058.5 |
| 20260903153200 | 21 | 270 | 17.7 | 0.0 | 0.00 | 0.05 | 0.00 | 80 | 1058.4 |
| 20260903153054 | 21 | 270 | 9.7 | 0.0 | 0.00 | 0.05 | 0.00 | 80 | 1058.4 |
| 20260903152941 | 21 | 292 | 12.9 | 0.0 | 0.00 | 0.05 | 0.00 | 79 | 1058.4 |
| 20260903152835 | 21 | 315 | 16.1 | 0.0 | 0.00 | 0.05 | 0.00 | 79 | 1058.4 |
| 20260903152721 | 21 | 315 | 32.2 | 0.0 | 0.00 | 0.05 | 0.00 | 79 | 1058.4 |
| 20260903152608 | 21 | 292 | 19.3 | 0.0 | 0.00 | 0.05 | 0.00 | 78 | 1058.4 |
| 20260903152454 | 21 | 292 | 6.4 | 0.0 | 0.00 | 0.05 | 0.00 | 78 | 1058.3 |
| 20260903152333 | 21 | 315 | 9.7 | 0.0 | 0.00 | 0.05 | 0.00 | 78 | 1058.3 |
| 20260903152227 | 21 | 292 | 14.5 | 0.0 | 0.00 | 0.05 | 0.00 | 78 | 1058.3 |
| 20260903152114 | 21 | 247 | 12.9 | 0.0 | 0.00 | 0.05 | 0.00 | 78 | 1058.4 |
| 20260903152001 | 21 | 337 | 11.3 | 0.0 | 0.00 | 0.05 | 0.00 | 78 | 1058.2 |
| 20260903151839 | 21 | 292 | 12.9 | 0.0 | 0.00 | 0.05 | 0.00 | 78 | 1058.3 |
| 20260903151718 | 21 | 292 | 20.9 | 0.0 | 0.00 | 0.05 | 0.00 | 78 | 1058.3 |
| 20260903151558 | 21 | 292 | 16.1 | 0.0 | 0.00 | 0.05 | 0.00 | 78 | 1058.3 |
| 20260903151452 | 21 | 292 | 19.3 | 0.0 | 0.00 | 0.05 | 0.00 | 78 | 1058.3 |
| 20260903151348 | 21 | 292 | 20.9 | 0.0 | 0.00 | 0.05 | 0.00 | 79 | 1058.2 |
| 20260903151242 | 21 | 292 | 8.0 | 0.0 | 0.00 | 0.05 | 0.00 | 79 | 1058.3 |
| 20260903151129 | 21 | 270 | 6.4 | 0.0 | 0.00 | 0.05 | 0.00 | 79 | 1058.3 |
| 20260903151023 | 21 | 337 | 9.7 | 0.0 | 0.00 | 0.05 | 0.00 | 79 | 1058.2 |
| 20260903150910 | 21 | 315 | 22.5 | 0.0 | 0.00 | 0.05 | 0.00 | 79 | 1058.2 |
| 20260903150758 | 21 | 315 | 11.3 | 0.0 | 0.00 | 0.05 | 0.00 | 79 | 1058.3 |
| 20260903150650 | 21 | 337 | 6.4 | 0.0 | 0.00 | 0.05 | 0.00 | 79 | 1058.3 |
| 20260903150536 | 21 | 247 | 14.5 | 0.0 | 0.00 | 0.05 | 0.00 | 79 | 1058.3 |
| 20260903150430 | 21 | 315 | 14.5 | 0.0 | 0.00 | 0.05 | 0.00 | 79 | 1058.3 |
| 20260903150317 | 21 | 247 | 9.7 | 0.0 | 0.00 | 0.05 | 0.00 | 79 | 1058.2 |
| 20260903150210 | 21 | 315 | 27.4 | 0.0 | 0.00 | 0.05 | 0.00 | 79 | 1058.2 |
| 20260903150048 | 21 | 270 | 19.3 | 0.0 | 0.00 | 0.05 | 0.00 | 79 | 1058.1 |
| 20260903145935 | 21 | 22 | 9.7 | 0.0 | 0.00 | 0.05 | 0.00 | 79 | 1058.2 |
| 20260903145821 | 21 | 292 | 9.7 | 0.0 | 0.00 | 0.05 | 0.00 | 79 | 1058.1 |
| 20260903145716 | 21 | 315 | 9.7 | 0.0 | 0.00 | 0.05 | 0.00 | 79 | 1058.1 |
| 20260903145610 | 21 | 270 | 17.7 | 0.0 | 0.00 | 0.05 | 0.00 | 79 | 1058.1 |
| 20260903145440 | 21 | 292 | 12.9 | 0.0 | 0.00 | 0.05 | 0.00 | 79 | 1058.2 |
| 20260903145327 | 21 | 315 | 25.7 | 0.0 | 0.00 | 0.05 | 0.00 | 79 | 1058.1 |
| 20260903145221 | 21 | 270 | 9.7 | 0.0 | 0.00 | 0.05 | 0.00 | 79 | 1058.1 |
| 20260903145110 | 21 | 270 | 12.9 | 0.0 | 0.00 | 0.05 | 0.00 | 79 | 1058.2 |
| 20260903145003 | 21 | 292 | 11.3 | 0.0 | 0.00 | 0.05 | 0.00 | 79 | 1058.2 |
| 20260903144833 | 21 | 292 | 12.9 | 0.0 | 0.00 | 0.05 | 0.00 | 80 | 1058.2 |
| 20260903144728 | 21 | 270 | 14.5 | 0.0 | 0.00 | 0.05 | 0.00 | 80 | 1058.1 |
| 20260903144605 | 21 | 270 | 8.0 | 0.0 | 0.00 | 0.05 | 0.00 | 80 | 1058.1 |
| 20260903144452 | 21 | 315 | 20.9 | 0.0 | 0.00 | 0.05 | 0.00 | 80 | 1058.1 |
| 20260903144338 | 21 | 292 | 19.3 | 0.0 | 0.00 | 0.05 | 0.00 | 79 | 1058.1 |
| 20260903144226 | 21 | 315 | 9.7 | 0.0 | 0.00 | 0.05 | 0.00 | 80 | 1058.1 |
| 20260903144110 | 21 | 315 | 11.3 | 0.0 | 0.00 | 0.05 | 0.00 | 79 | 1058.0 |
| 20260903143950 | 21 | 292 | 14.5 | 0.0 | 0.00 | 0.05 | 0.00 | 79 | 1058.0 |
| 20260903143845 | 21 | 247 | 19.3 | 0.0 | 0.00 | 0.05 | 0.00 | 79 | 1058.0 |
| 20260903143738 | 21 | 0 | 0.0 | 0.0 | 0.00 | 0.05 | 0.00 | 79 | 1058.0 |
| 20260903143616 | 21 | 337 | 6.4 | 0.0 | 0.00 | 0.05 | 0.00 | 79 | 1058.1 |
| 20260903143456 | 21 | 292 | 11.3 | 0.0 | 0.00 | 0.05 | 0.00 | 79 | 1058.0 |
| 20260903143343 | 21 | 270 | 11.3 | 0.0 | 0.00 | 0.05 | 0.00 | 79 | 1058.1 |
| 20260903143228 | 21 | 270 | 19.3 | 0.0 | 0.00 | 0.05 | 0.00 | 79 | 1058.0 |
| 20260903143122 | 21 | 292 | 9.7 | 0.0 | 0.00 | 0.05 | 0.00 | 79 | 1058.0 |
| 20260903143001 | 21 | 270 | 8.0 | 0.0 | 0.00 | 0.05 | 0.00 | 80 | 1058.0 |
| 20260903142847 | 21 | 337 | 9.7 | 0.0 | 0.00 | 0.05 | 0.00 | 79 | 1058.0 |
| 20260903142726 | 21 | 292 | 8.0 | 0.0 | 0.00 | 0.05 | 0.00 | 79 | 1058.1 |
| 20260903142606 | 21 | 247 | 24.1 | 0.0 | 0.00 | 0.05 | 0.00 | 79 | 1058.0 |
| 20260903142451 | 21 | 0 | 8.0 | 0.0 | 0.00 | 0.05 | 0.00 | 79 | 1058.1 |
| 20260903142329 | 21 | 315 | 9.7 | 0.0 | 0.00 | 0.05 | 0.00 | 78 | 1058.0 |
| 20260903142225 | 21 | 270 | 20.9 | 0.0 | 0.00 | 0.05 | 0.00 | 78 | 1058.0 |
| 20260903142119 | 21 | 270 | 9.7 | 0.0 | 0.00 | 0.05 | 0.00 | 78 | 1058.0 |
| 20260903142013 | 21 | 315 | 16.1 | 0.0 | 0.00 | 0.05 | 0.00 | 78 | 1058.1 |
| 20260903141844 | 21 | 315 | 9.7 | 0.0 | 0.00 | 0.05 | 0.00 | 78 | 1058.0 |
| 20260903141731 | 21 | 270 | 11.3 | 0.0 | 0.00 | 0.05 | 0.00 | 78 | 1057.9 |
| 20260903141626 | 21 | 270 | 9.7 | 0.0 | 0.00 | 0.05 | 0.00 | 77 | 1058.0 |
| 20260903141457 | 21 | 292 | 0.0 | 0.0 | 0.00 | 0.05 | 0.00 | 77 | 1058.0 |
| 20260903141344 | 21 | 292 | 6.4 | 0.0 | 0.00 | 0.05 | 0.00 | 77 | 1058.1 |
| 20260903141222 | 21 | 247 | 3.2 | 0.0 | 0.00 | 0.05 | 0.00 | 77 | 1058.0 |
| 20260903141102 | 21 | 270 | 16.1 | 0.0 | 0.00 | 0.05 | 0.00 | 77 | 1058.0 |
| 20260903140956 | 21 | 292 | 8.0 | 0.0 | 0.00 | 0.05 | 0.00 | 77 | 1058.0 |
| 20260903140835 | 21 | 292 | 9.7 | 0.0 | 0.00 | 0.05 | 0.00 | 77 | 1058.0 |
| 20260903140705 | 21 | 270 | 6.4 | 0.0 | 0.00 | 0.05 | 0.00 | 76 | 1058.0 |
| 20260903140554 | 21 | 315 | 11.3 | 0.0 | 0.00 | 0.05 | 0.00 | 76 | 1058.0 |
| 20260903140447 | 21 | 270 | 14.5 | 0.0 | 0.00 | 0.05 | 0.00 | 76 | 1057.9 |
| 20260903140320 | 22 | 0 | 9.7 | 0.0 | 0.00 | 0.05 | 0.00 | 76 | 1058.0 |
| 20260903140207 | 21 | 292 | 6.4 | 0.0 | 0.00 | 0.05 | 0.00 | 76 | 1057.9 |
| 20260903140052 | 22 | 337 | 6.4 | 0.0 | 0.00 | 0.05 | 0.00 | 76 | 1057.9 |
| 20260903135939 | 22 | 292 | 16.1 | 0.0 | 0.00 | 0.05 | 0.00 | 76 | 1057.9 |
| 20260903135817 | 22 | 0 | 9.7 | 0.0 | 0.00 | 0.05 | 0.00 | 76 | 1058.0 |
| 20260903135704 | 22 | 315 | 6.4 | 0.0 | 0.00 | 0.05 | 0.00 | 76 | 1058.0 |
| 20260903135550 | 22 | 315 | 6.4 | 0.0 | 0.00 | 0.05 | 0.00 | 76 | 1058.0 |
| 20260903135431 | 22 | 292 | 19.3 | 0.0 | 0.00 | 0.05 | 0.00 | 76 | 1057.9 |
| 20260903135325 | 22 | 315 | 4.8 | 0.0 | 0.00 | 0.05 | 0.00 | 76 | 1057.9 |
| 20260903135214 | 22 | 292 | 3.2 | 0.0 | 0.00 | 0.05 | 0.00 | 76 | 1057.9 |
| 20260903135059 | 22 | 247 | 19.3 | 0.0 | 0.00 | 0.05 | 0.00 | 76 | 1057.9 |
| 20260903134938 | 22 | 247 | 16.1 | 0.0 | 0.00 | 0.05 | 0.00 | 76 | 1057.8 |
| 20260903134824 | 22 | 270 | 9.7 | 0.0 | 0.00 | 0.05 | 0.00 | 76 | 1057.9 |
| 20260903134704 | 22 | 270 | 29.0 | 0.0 | 0.00 | 0.05 | 0.00 | 76 | 1057.9 |
| 20260903134552 | 22 | 247 | 6.4 | 0.0 | 0.00 | 0.05 | 0.00 | 76 | 1057.8 |
| 20260903134439 | 22 | 337 | 22.5 | 0.0 | 0.00 | 0.05 | 0.00 | 76 | 1057.8 |
| 20260903134333 | 22 | 270 | 16.1 | 0.0 | 0.00 | 0.05 | 0.00 | 76 | 1057.7 |
| 20260903134227 | 22 | 292 | 9.7 | 0.0 | 0.00 | 0.05 | 0.00 | 76 | 1057.7 |
| 20260903134114 | 22 | 292 | 11.3 | 0.0 | 0.00 | 0.05 | 0.00 | 77 | 1057.7 |
| 20260903134002 | 22 | 292 | 11.3 | 0.0 | 0.00 | 0.05 | 0.00 | 77 | 1057.8 |
| 20260903133857 | 22 | 270 | 11.3 | 0.0 | 0.00 | 0.05 | 0.00 | 77 | 1057.8 |
| 20260903133750 | 22 | 337 | 8.0 | 0.0 | 0.00 | 0.05 | 0.00 | 77 | 1057.7 |
| 20260903133631 | 22 | 315 | 17.7 | 0.0 | 0.00 | 0.05 | 0.00 | 78 | 1057.8 |
| 20260903133524 | 22 | 315 | 12.9 | 0.0 | 0.00 | 0.05 | 0.00 | 78 | 1057.9 |
| 20260903133403 | 22 | 292 | 24.1 | 0.0 | 0.00 | 0.05 | 0.00 | 78 | 1057.8 |
| 20260903133244 | 22 | 292 | 20.9 | 0.0 | 0.00 | 0.05 | 0.00 | 78 | 1057.8 |
| 20260903133138 | 21 | 292 | 8.0 | 0.0 | 0.00 | 0.05 | 0.00 | 77 | 1057.8 |
| 20260903133024 | 21 | 270 | 20.9 | 0.0 | 0.00 | 0.05 | 0.00 | 77 | 1057.8 |
| 20260903132910 | 22 | 292 | 29.0 | 0.0 | 0.00 | 0.05 | 0.00 | 78 | 1057.7 |
| 20260903132759 | 22 | 270 | 4.8 | 0.0 | 0.00 | 0.05 | 0.00 | 78 | 1057.7 |
| 20260903132652 | 22 | 315 | 12.9 | 0.0 | 0.00 | 0.05 | 0.00 | 79 | 1057.8 |
| 20260903132531 | 22 | 270 | 8.0 | 0.0 | 0.00 | 0.05 | 0.00 | 79 | 1057.8 |
| 20260903132411 | 22 | 315 | 9.7 | 0.0 | 0.00 | 0.05 | 0.00 | 79 | 1057.9 |
| 20260903132256 | 22 | 270 | 9.7 | 0.0 | 0.00 | 0.05 | 0.00 | 79 | 1057.9 |
| 20260903132144 | 22 | 315 | 11.3 | 0.0 | 0.00 | 0.05 | 0.00 | 78 | 1057.9 |
| 20260903132031 | 22 | 337 | 14.5 | 0.0 | 0.00 | 0.05 | 0.00 | 78 | 1057.8 |
| 20260903131920 | 22 | 292 | 8.0 | 0.0 | 0.00 | 0.05 | 0.00 | 78 | 1057.8 |
| 20260903131814 | 22 | 292 | 9.7 | 0.0 | 0.00 | 0.05 | 0.00 | 78 | 1057.8 |
| 20260903131708 | 22 | 292 | 14.5 | 0.0 | 0.00 | 0.05 | 0.00 | 77 | 1057.9 |
| 20260903131556 | 22 | 292 | 19.3 | 0.0 | 0.00 | 0.05 | 0.00 | 77 | 1057.8 |
| 20260903131449 | 22 | 292 | 9.7 | 0.0 | 0.00 | 0.05 | 0.00 | 77 | 1057.9 |
| 20260903131336 | 22 | 315 | 4.8 | 0.0 | 0.00 | 0.05 | 0.00 | 77 | 1057.9 |
| 20260903131217 | 22 | 315 | 24.1 | 0.0 | 0.00 | 0.05 | 0.00 | 77 | 1057.7 |
| 20260903131109 | 22 | 292 | 0.0 | 0.0 | 0.00 | 0.05 | 0.00 | 77 | 1057.8 |
| 20260903130957 | 22 | 292 | 20.9 | 0.0 | 0.00 | 0.05 | 0.00 | 77 | 1057.7 |
| 20260903130835 | 22 | 337 | 17.7 | 0.0 | 0.00 | 0.05 | 0.00 | 77 | 1057.8 |
| 20260903130724 | 22 | 315 | 16.1 | 0.0 | 0.00 | 0.05 | 0.00 | 77 | 1057.8 |
| 20260903130617 | 22 | 270 | 8.0 | 0.0 | 0.00 | 0.05 | 0.00 | 77 | 1057.8 |
| 20260903130504 | 22 | 270 | 9.7 | 0.0 | 0.00 | 0.05 | 0.00 | 78 | 1057.9 |
| 20260903130351 | 22 | 292 | 11.3 | 0.0 | 0.00 | 0.05 | 0.00 | 78 | 1057.8 |
| 20260903130230 | 22 | 315 | 16.1 | 0.0 | 0.00 | 0.05 | 0.00 | 78 | 1057.9 |
| 20260903130117 | 22 | 247 | 9.7 | 0.0 | 0.00 | 0.05 | 0.00 | 78 | 1057.8 |
| 20260903130003 | 22 | 337 | 20.9 | 0.0 | 0.00 | 0.05 | 0.00 | 78 | 1057.9 |
| 20260903125842 | 22 | 270 | 6.4 | 0.0 | 0.00 | 0.05 | 0.00 | 78 | 1057.9 |
| 20260903125731 | 22 | 292 | 17.7 | 0.0 | 0.00 | 0.05 | 0.00 | 78 | 1057.9 |
| 20260903125627 | 22 | 315 | 12.9 | 0.0 | 0.00 | 0.05 | 0.00 | 78 | 1057.7 |
| 20260903125519 | 22 | 292 | 6.4 | 0.0 | 0.00 | 0.05 | 0.00 | 78 | 1057.8 |
| 20260903125406 | 22 | 292 | 14.5 | 0.0 | 0.00 | 0.05 | 0.00 | 78 | 1057.8 |
| 20260903125252 | 22 | 270 | 14.5 | 0.0 | 0.00 | 0.05 | 0.00 | 77 | 1057.9 |
| 20260903125134 | 22 | 270 | 12.9 | 0.0 | 0.00 | 0.05 | 0.00 | 77 | 1057.8 |
| 20260903125020 | 22 | 292 | 12.9 | 0.0 | 0.00 | 0.05 | 0.00 | 77 | 1057.8 |
| 20260903124913 | 22 | 270 | 11.3 | 0.0 | 0.00 | 0.05 | 0.00 | 77 | 1057.7 |
| 20260903124800 | 22 | 292 | 9.7 | 0.0 | 0.00 | 0.05 | 0.00 | 77 | 1057.7 |
| 20260903124647 | 22 | 0 | 9.7 | 0.0 | 0.00 | 0.05 | 0.00 | 77 | 1057.6 |
| 20260903124526 | 22 | 270 | 14.5 | 0.0 | 0.00 | 0.05 | 0.00 | 77 | 1057.7 |
| 20260903124415 | 22 | 315 | 14.5 | 0.0 | 0.00 | 0.05 | 0.00 | 77 | 1057.6 |
| 20260903124308 | 22 | 292 | 4.8 | 0.0 | 0.00 | 0.05 | 0.00 | 76 | 1057.7 |
| 20260903124147 | 22 | 315 | 12.9 | 0.0 | 0.00 | 0.05 | 0.00 | 76 | 1057.5 |
| 20260903124042 | 22 | 315 | 30.6 | 0.0 | 0.00 | 0.05 | 0.00 | 76 | 1057.5 |
| 20260903123928 | 22 | 292 | 4.8 | 0.0 | 0.00 | 0.05 | 0.00 | 76 | 1057.5 |
| 20260903123802 | 22 | 270 | 14.5 | 0.0 | 0.00 | 0.05 | 0.00 | 76 | 1057.5 |
| 20260903123653 | 22 | 270 | 19.3 | 0.0 | 0.00 | 0.05 | 0.00 | 76 | 1057.6 |
| 20260903123533 | 22 | 270 | 19.3 | 0.0 | 0.00 | 0.05 | 0.00 | 76 | 1057.5 |
| 20260903123415 | 23 | 270 | 4.8 | 0.0 | 0.00 | 0.05 | 0.00 | 75 | 1057.5 |
| 20260903123307 | 23 | 292 | 16.1 | 0.0 | 0.00 | 0.05 | 0.00 | 74 | 1057.5 |
| 20260903123153 | 23 | 292 | 9.7 | 0.0 | 0.00 | 0.05 | 0.00 | 74 | 1057.5 |
| 20260903123041 | 23 | 247 | 8.0 | 0.0 | 0.00 | 0.05 | 0.00 | 74 | 1057.5 |
| 20260903122919 | 23 | 270 | 12.9 | 0.0 | 0.00 | 0.05 | 0.00 | 73 | 1057.5 |
| 20260903122809 | 23 | 292 | 17.7 | 0.0 | 0.00 | 0.05 | 0.00 | 73 | 1057.4 |
| 20260903122701 | 23 | 337 | 9.7 | 0.0 | 0.00 | 0.05 | 0.00 | 73 | 1057.4 |
| 20260903122532 | 23 | 337 | 11.3 | 0.0 | 0.00 | 0.05 | 0.00 | 73 | 1057.4 |
| 20260903122419 | 23 | 315 | 12.9 | 0.0 | 0.00 | 0.05 | 0.00 | 73 | 1057.4 |
| 20260903122314 | 23 | 247 | 12.9 | 0.0 | 0.00 | 0.05 | 0.00 | 72 | 1057.4 |
| 20260903122209 | 23 | 315 | 12.9 | 0.0 | 0.00 | 0.05 | 0.00 | 72 | 1057.3 |
| 20260903122056 | 23 | 315 | 8.0 | 0.0 | 0.00 | 0.05 | 0.00 | 72 | 1057.4 |
| 20260903121934 | 24 | 337 | 12.9 | 0.0 | 0.00 | 0.05 | 0.00 | 72 | 1057.4 |
| 20260903121821 | 24 | 225 | 16.1 | 0.0 | 0.00 | 0.05 | 0.00 | 72 | 1057.3 |
| 20260903121707 | 24 | 315 | 12.9 | 0.0 | 0.00 | 0.05 | 0.00 | 72 | 1057.4 |
| 20260903121547 | 24 | 315 | 8.0 | 0.0 | 0.00 | 0.05 | 0.00 | 72 | 1057.3 |
| 20260903121434 | 24 | 270 | 19.3 | 0.0 | 0.00 | 0.05 | 0.00 | 71 | 1057.3 |
| 20260903121320 | 24 | 292 | 12.9 | 0.0 | 0.00 | 0.05 | 0.00 | 71 | 1057.2 |
| 20260903121159 | 24 | 270 | 17.7 | 0.0 | 0.00 | 0.05 | 0.00 | 71 | 1057.2 |
| 20260903121046 | 24 | 270 | 16.1 | 0.0 | 0.00 | 0.05 | 0.00 | 71 | 1057.3 |
| 20260903120926 | 24 | 247 | 17.7 | 0.0 | 0.00 | 0.05 | 0.00 | 71 | 1057.3 |
| 20260903120820 | 24 | 315 | 9.7 | 0.0 | 0.00 | 0.05 | 0.00 | 71 | 1057.2 |
| 20260903120659 | 24 | 270 | 32.2 | 0.0 | 0.00 | 0.05 | 0.00 | 71 | 1057.1 |
| 20260903120548 | 24 | 270 | 24.1 | 0.0 | 0.00 | 0.05 | 0.00 | 72 | 1057.2 |
| 20260903120440 | 24 | 270 | 12.9 | 0.0 | 0.00 | 0.05 | 0.00 | 72 | 1057.2 |
| 20260903120328 | 24 | 292 | 30.6 | 0.0 | 0.00 | 0.05 | 0.00 | 72 | 1057.1 |
| 20260903120214 | 24 | 270 | 17.7 | 0.0 | 0.00 | 0.05 | 0.00 | 73 | 1057.2 |
| 20260903120100 | 24 | 247 | 25.7 | 0.0 | 0.00 | 0.05 | 0.00 | 73 | 1057.0 |
| 20260903115940 | 23 | 337 | 11.3 | 0.0 | 0.00 | 0.05 | 0.00 | 75 | 1057.3 |
| 20260903115821 | 23 | 315 | 9.7 | 0.0 | 0.00 | 0.05 | 0.00 | 75 | 1057.2 |
| 20260903115706 | 23 | 315 | 12.9 | 0.0 | 0.00 | 0.05 | 0.00 | 75 | 1057.3 |
| 20260903115554 | 23 | 247 | 11.3 | 0.0 | 0.00 | 0.05 | 0.00 | 76 | 1057.2 |
| 20260903115448 | 23 | 292 | 12.9 | 0.0 | 0.00 | 0.05 | 0.00 | 77 | 1057.2 |
| 20260903115335 | 22 | 315 | 9.7 | 0.0 | 0.00 | 0.05 | 0.00 | 78 | 1057.2 |
| 20260903115213 | 22 | 292 | 22.5 | 0.0 | 0.00 | 0.05 | 0.00 | 78 | 1057.2 |
| 20260903115052 | 22 | 292 | 6.4 | 0.0 | 0.00 | 0.05 | 0.00 | 79 | 1057.1 |
| 20260903114940 | 22 | 292 | 14.5 | 0.0 | 0.00 | 0.05 | 0.00 | 78 | 1057.2 |
| 20260903114827 | 22 | 292 | 11.3 | 0.0 | 0.00 | 0.05 | 0.00 | 78 | 1057.2 |
| 20260903114720 | 22 | 292 | 19.3 | 0.0 | 0.00 | 0.05 | 0.00 | 77 | 1057.2 |
| 20260903114600 | 22 | 292 | 8.0 | 0.0 | 0.00 | 0.05 | 0.00 | 76 | 1057.2 |
| 20260903114432 | 22 | 315 | 24.1 | 0.0 | 0.00 | 0.05 | 0.00 | 76 | 1057.1 |
| 20260903114317 | 22 | 337 | 6.4 | 0.0 | 0.00 | 0.05 | 0.00 | 75 | 1057.1 |
| 20260903114204 | 22 | 270 | 14.5 | 0.0 | 0.00 | 0.05 | 0.00 | 75 | 1057.1 |
| 20260903114051 | 22 | 247 | 19.3 | 0.0 | 0.00 | 0.05 | 0.00 | 74 | 1057.1 |
| 20260903113937 | 23 | 292 | 14.5 | 0.0 | 0.00 | 0.05 | 0.00 | 74 | 1057.2 |
| 20260903113825 | 23 | 292 | 12.9 | 0.0 | 0.00 | 0.05 | 0.00 | 75 | 1057.0 |
| 20260903113712 | 23 | 292 | 30.6 | 0.0 | 0.00 | 0.05 | 0.00 | 75 | 1057.0 |
| 20260903113606 | 23 | 292 | 32.2 | 0.0 | 0.00 | 0.05 | 0.00 | 75 | 1057.1 |
| 20260903113453 | 23 | 225 | 8.0 | 0.0 | 0.00 | 0.05 | 0.00 | 75 | 1057.0 |
| 20260903113340 | 23 | 292 | 14.5 | 0.0 | 0.00 | 0.05 | 0.00 | 76 | 1057.0 |
| 20260903113230 | 23 | 270 | 14.5 | 0.0 | 0.00 | 0.05 | 0.00 | 76 | 1057.1 |
| 20260903113123 | 23 | 247 | 16.1 | 0.0 | 0.00 | 0.05 | 0.00 | 76 | 1057.1 |
| 20260903113018 | 22 | 270 | 27.4 | 0.0 | 0.00 | 0.05 | 0.00 | 75 | 1057.1 |
| 20260903112904 | 23 | 292 | 20.9 | 0.0 | 0.00 | 0.05 | 0.00 | 75 | 1057.0 |
| 20260903112753 | 23 | 270 | 25.7 | 0.0 | 0.00 | 0.05 | 0.00 | 75 | 1057.0 |
| 20260903112647 | 23 | 292 | 14.5 | 0.0 | 0.00 | 0.05 | 0.00 | 75 | 1056.9 |
| 20260903112542 | 23 | 180 | 22.5 | 0.0 | 0.00 | 0.05 | 0.00 | 75 | 1056.9 |
| 20260903112428 | 23 | 292 | 11.3 | 0.0 | 0.00 | 0.05 | 0.00 | 75 | 1056.9 |
| 20260903112317 | 23 | 270 | 11.3 | 0.0 | 0.00 | 0.05 | 0.00 | 75 | 1056.9 |
| 20260903112210 | 23 | 247 | 14.5 | 0.0 | 0.00 | 0.05 | 0.00 | 75 | 1057.0 |
| 20260903112049 | 23 | 225 | 12.9 | 0.0 | 0.00 | 0.05 | 0.00 | 75 | 1056.9 |
| 20260903111938 | 23 | 270 | 14.5 | 0.0 | 0.00 | 0.05 | 0.00 | 75 | 1056.9 |
| 20260903111830 | 23 | 0 | 6.4 | 0.0 | 0.00 | 0.05 | 0.00 | 75 | 1056.9 |
| 20260903111710 | 23 | 270 | 22.5 | 0.0 | 0.00 | 0.05 | 0.00 | 75 | 1056.8 |
| 20260903111605 | 23 | 315 | 12.9 | 0.0 | 0.00 | 0.05 | 0.00 | 75 | 1056.8 |
| 20260903111459 | 23 | 315 | 24.1 | 0.0 | 0.00 | 0.05 | 0.00 | 75 | 1056.8 |
| 20260903111346 | 23 | 292 | 24.1 | 0.0 | 0.00 | 0.05 | 0.00 | 74 | 1056.8 |
| 20260903111232 | 23 | 315 | 14.5 | 0.0 | 0.00 | 0.05 | 0.00 | 74 | 1056.8 |
| 20260903111111 | 23 | 292 | 9.7 | 0.0 | 0.00 | 0.05 | 0.00 | 74 | 1056.8 |
| 20260903110950 | 23 | 315 | 16.1 | 0.0 | 0.00 | 0.05 | 0.00 | 75 | 1056.8 |
| 20260903110838 | 23 | 247 | 16.1 | 0.0 | 0.00 | 0.05 | 0.00 | 75 | 1056.8 |
| 20260903110732 | 23 | 315 | 24.1 | 0.0 | 0.00 | 0.05 | 0.00 | 75 | 1056.8 |
| 20260903110620 | 23 | 292 | 17.7 | 0.0 | 0.00 | 0.05 | 0.00 | 75 | 1056.7 |
| 20260903110515 | 23 | 270 | 17.7 | 0.0 | 0.00 | 0.05 | 0.00 | 75 | 1056.8 |
| 20260903110411 | 23 | 270 | 9.7 | 0.0 | 0.00 | 0.05 | 0.00 | 75 | 1056.8 |
| 20260903110304 | 23 | 292 | 11.3 | 0.0 | 0.00 | 0.05 | 0.00 | 75 | 1056.7 |
| 20260903110136 | 23 | 292 | 14.5 | 0.0 | 0.00 | 0.05 | 0.00 | 75 | 1056.7 |
| 20260903105856 | 23 | 292 | 12.9 | 0.0 | 0.05 | 0.05 | 0.00 | 75 | 1056.7 |
| 20260903105744 | 23 | 270 | 9.7 | 0.0 | 0.05 | 0.05 | 0.00 | 75 | 1056.6 |
| 20260903105624 | 23 | 315 | 27.4 | 0.0 | 0.05 | 0.05 | 0.00 | 75 | 1056.7 |
| 20260903105517 | 23 | 292 | 9.7 | 0.0 | 0.05 | 0.05 | 0.00 | 74 | 1056.7 |
| 20260903105356 | 24 | 270 | 12.9 | 0.0 | 0.05 | 0.05 | 0.00 | 74 | 1056.6 |
| 20260903105250 | 24 | 315 | 11.3 | 0.0 | 0.05 | 0.05 | 0.00 | 74 | 1056.7 |
| 20260903105143 | 24 | 270 | 17.7 | 0.0 | 0.05 | 0.05 | 0.00 | 74 | 1056.7 |
| 20260903105029 | 24 | 270 | 17.7 | 0.0 | 0.05 | 0.05 | 0.00 | 73 | 1056.7 |
| 20260903104919 | 23 | 270 | 11.3 | 0.0 | 0.05 | 0.05 | 0.00 | 74 | 1056.6 |
| 20260903104813 | 23 | 292 | 20.9 | 0.0 | 0.05 | 0.05 | 0.00 | 74 | 1056.5 |
| 20260903104700 | 23 | 270 | 4.8 | 0.0 | 0.05 | 0.05 | 0.00 | 74 | 1056.5 |
| 20260903104552 | 23 | 270 | 16.1 | 0.0 | 0.05 | 0.05 | 0.00 | 74 | 1056.7 |
| 20260903104440 | 23 | 315 | 17.7 | 0.0 | 0.05 | 0.05 | 0.00 | 75 | 1056.7 |
| 20260903104333 | 23 | 292 | 17.7 | 0.0 | 0.05 | 0.05 | 0.00 | 75 | 1056.7 |
| 20260903104223 | 23 | 315 | 9.7 | 0.0 | 0.05 | 0.05 | 0.00 | 76 | 1056.8 |
| 20260903104115 | 23 | 292 | 11.3 | 0.0 | 0.05 | 0.05 | 0.00 | 76 | 1056.8 |
| 20260903103954 | 23 | 270 | 12.9 | 0.0 | 0.05 | 0.05 | 0.00 | 76 | 1056.9 |
| 20260903103841 | 23 | 270 | 11.3 | 0.0 | 0.05 | 0.05 | 0.00 | 77 | 1056.9 |
| 20260903103722 | 23 | 270 | 32.2 | 0.0 | 0.05 | 0.05 | 0.00 | 77 | 1056.9 |
| 20260903103607 | 23 | 247 | 17.7 | 0.0 | 0.05 | 0.05 | 0.00 | 77 | 1056.9 |
| 20260903103448 | 23 | 225 | 25.7 | 0.0 | 0.05 | 0.05 | 0.00 | 77 | 1056.9 |
| 20260903103332 | 23 | 292 | 11.3 | 0.0 | 0.05 | 0.05 | 0.00 | 77 | 1057.0 |